Home > Products > Valid Products > TAF

000
FTUS45 KSLC 041727
TAFOGD
TAF
KOGD 041727Z 0418/0518 30007KT P6SM SCT200
     FM050300 17009KT P6SM SCT090 BKN200
     FM051500 20012G19KT P6SM SCT090 BKN200=



000
FTUS45 KSLC 041727
TAFPVU
TAF
KPVU 041727Z 0418/0518 VRB05KT P6SM SCT200
     FM050300 14008KT P6SM FEW090 SCT200
      AMD LTD TO CLD VIS AND WIND=



000
FTUS45 KSLC 041727
TAFCDC
TAF
KCDC 041727Z 0418/0518 22012G18KT P6SM FEW080
     FM050200 19007KT P6SM SCT200
     FM051600 21014G21KT P6SM BKN200=



000
FTUS45 KSLC 041727
TAFSGU
TAF
KSGU 041727Z 0418/0518 VRB05KT P6SM SKC
     FM042000 24011G17KT P6SM SCT200
     FM050200 26008KT P6SM SCT200
     FM050400 13009KT P6SM SCT200
      AMD LTD TO CLD VIS AND WIND=



000
FTUS45 KSLC 041727
TAFENV
TAF
KENV 041727Z 0418/0518 14008KT P6SM VCSH FEW090 SCT200
     FM050300 VRB04KT P6SM VCSH SCT090 BKN200
     FM051600 11008KT P6SM FEW090 SCT200
      AMD LTD TO CLD VIS AND WIND=



000
FTUS45 KSLC 041727
TAFSGU
TAF
KSGU 041727Z 0418/0518 VRB05KT P6SM SKC
     FM042000 24011G17KT P6SM SCT200
     FM050200 26008KT P6SM SCT200
     FM050400 13009KT P6SM SCT200
      AMD LTD TO CLD VIS AND WIND=



000
FTUS45 KSLC 041727
TAFLGU
TAF
KLGU 041727Z 0418/0518 VRB05KT P6SM SKC
     FM050000 15007KT P6SM SCT090 BKN200
     FM051600 18010G16KT P6SM VCSH SCT090 BKN150=



000
FTUS45 KSLC 041727
TAFCDC
TAF
KCDC 041727Z 0418/0518 22012G18KT P6SM FEW080
     FM050200 19007KT P6SM SCT200
     FM051600 21014G21KT P6SM BKN200=



000
FTUS45 KSLC 041727
TAFBCE
TAF
KBCE 041727Z 0418/0518 15009KT P6SM SKC
     FM042000 20010G17KT P6SM FEW080
     FM050200 27007KT P6SM SCT200=



000
FTUS45 KSLC 041727
TAFENV
TAF
KENV 041727Z 0418/0518 14008KT P6SM VCSH FEW090 SCT200
     FM050300 VRB04KT P6SM VCSH SCT090 BKN200
     FM051600 11008KT P6SM FEW090 SCT200
      AMD LTD TO CLD VIS AND WIND=



000
FTUS45 KSLC 041727
TAFSLC
TAF
KSLC 041727Z 0418/0524 33008KT P6SM SCT200
     FM050400 16011KT P6SM FEW090 SCT200
     FM051300 17013G20KT P6SM SCT090 BKN200
     FM051700 18018G26KT P6SM SCT090 BKN200
     FM052100 29017G26KT P6SM FEW090 SCT200=



000
FTUS45 KSLC 041727
TAFLGU
TAF
KLGU 041727Z 0418/0518 VRB05KT P6SM SKC
     FM050000 15007KT P6SM SCT090 BKN200
     FM051600 18010G16KT P6SM VCSH SCT090 BKN150=



000
FTUS45 KSLC 041727
TAFBCE
TAF
KBCE 041727Z 0418/0518 15009KT P6SM SKC
     FM042000 20010G17KT P6SM FEW080
     FM050200 27007KT P6SM SCT200=



000
FTUS45 KSLC 041727
TAFOGD
TAF
KOGD 041727Z 0418/0518 30007KT P6SM SCT200
     FM050300 17009KT P6SM SCT090 BKN200
     FM051500 20012G19KT P6SM SCT090 BKN200=



000
FTUS45 KSLC 041727
TAFPVU
TAF
KPVU 041727Z 0418/0518 VRB05KT P6SM SCT200
     FM050300 14008KT P6SM FEW090 SCT200
      AMD LTD TO CLD VIS AND WIND=



000
FTUS45 KSLC 041727
TAFSLC
TAF
KSLC 041727Z 0418/0524 33008KT P6SM SCT200
     FM050400 16011KT P6SM FEW090 SCT200
     FM051300 17013G20KT P6SM SCT090 BKN200
     FM051700 18018G26KT P6SM SCT090 BKN200
     FM052100 29017G26KT P6SM FEW090 SCT200=



000
FTUS45 KSLC 041431 AAC
TAFSLC
TAF AMD
KSLC 041431Z 0415/0518 15007KT P6SM SKC
     FM042000 33007KT P6SM SCT150
     FM050400 16007KT P6SM SKC=



000
FTUS45 KSLC 041431 AAC
TAFSLC
TAF AMD
KSLC 041431Z 0415/0518 15007KT P6SM SKC
     FM042000 33007KT P6SM SCT150
     FM050400 16007KT P6SM SKC=



000
FTUS45 KSLC 041427 AAB
TAFLGU
TAF AMD
KLGU 041427Z 0414/0512 00000KT P6SM BCFG FEW002
      TEMPO 0414/0415 1SM BR OVC005
     FM041600 VRB05KT P6SM SKC=



000
FTUS45 KSLC 041427 AAB
TAFLGU
TAF AMD
KLGU 041427Z 0414/0512 00000KT P6SM BCFG FEW002
      TEMPO 0414/0415 1SM BR OVC005
     FM041600 VRB05KT P6SM SKC=



000
FTUS45 KSLC 041159 AAA
TAFLGU
TAF AMD
KLGU 041159Z 0412/0512 00000KT P6SM BCFG FEW002
      TEMPO 0412/0414 1/4SM FG VV002
     FM041600 VRB05KT P6SM SKC=



000
FTUS45 KSLC 041159 AAA
TAFLGU
TAF AMD
KLGU 041159Z 0412/0512 00000KT P6SM BCFG FEW002
      TEMPO 0412/0414 1/4SM FG VV002
     FM041600 VRB05KT P6SM SKC=



000
FTUS45 KSLC 041120
TAFCDC
TAF
KCDC 041120Z 0412/0512 19006KT P6SM SKC
     FM041600 22009KT P6SM SKC
     FM042000 23011G17KT P6SM SKC
     FM050200 19006KT P6SM SKC=



000
FTUS45 KSLC 041120
TAFSGU
TAF
KSGU 041120Z 0412/0512 VRB04KT P6SM SKC
     FM042000 27009KT P6SM SKC
     FM050400 VRB04KT P6SM SKC
      AMD LTD TO CLD VIS AND WIND=



000
FTUS45 KSLC 041120
TAFENV
TAF
KENV 041120Z 0412/0512 VRB04KT P6SM SKC
     FM041600 11006KT P6SM SKC
     FM050300 VRB04KT P6SM SKC
      AMD LTD TO CLD VIS AND WIND=



000
FTUS45 KSLC 041120
TAFCDC
TAF
KCDC 041120Z 0412/0512 19006KT P6SM SKC
     FM041600 22009KT P6SM SKC
     FM042000 23011G17KT P6SM SKC
     FM050200 19006KT P6SM SKC=



000
FTUS45 KSLC 041120
TAFBCE
TAF
KBCE 041120Z 0412/0512 27008KT P6SM SKC
     FM041600 19009KT P6SM FEW080
     FM050200 27007KT P6SM SKC=



000
FTUS45 KSLC 041120
TAFCDC
TAF
KCDC 041120Z 0412/0512 19006KT P6SM SKC
     FM041600 22009KT P6SM SKC
     FM042000 23011G17KT P6SM SKC
     FM050200 19006KT P6SM SKC=



000
FTUS45 KSLC 041120
TAFPVU
TAF
KPVU 041120Z 0412/0512 VRB04KT P6SM SCT120
     FM041700 VRB05KT P6SM SCT150
      AMD LTD TO CLD VIS AND WIND=



000
FTUS45 KSLC 041120
TAFPVU
TAF
KPVU 041120Z 0412/0512 VRB04KT P6SM SCT120
     FM041700 VRB05KT P6SM SCT150
      AMD LTD TO CLD VIS AND WIND=



000
FTUS45 KSLC 041120
TAFSGU
TAF
KSGU 041120Z 0412/0512 VRB04KT P6SM SKC
     FM042000 27009KT P6SM SKC
     FM050400 VRB04KT P6SM SKC
      AMD LTD TO CLD VIS AND WIND=



000
FTUS45 KSLC 041120
TAFLGU
TAF
KLGU 041120Z 0412/0512 VRB03KT 2SM BR BCFG SCT002
      TEMPO 0412/0414 1/4SM FG VV002
     FM041600 VRB05KT P6SM SKC=



000
FTUS45 KSLC 041120
TAFBCE
TAF
KBCE 041120Z 0412/0512 27008KT P6SM SKC
     FM041600 19009KT P6SM FEW080
     FM050200 27007KT P6SM SKC=



000
FTUS45 KSLC 041120
TAFENV
TAF
KENV 041120Z 0412/0512 VRB04KT P6SM SKC
     FM041600 11006KT P6SM SKC
     FM050300 VRB04KT P6SM SKC
      AMD LTD TO CLD VIS AND WIND=



000
FTUS45 KSLC 041120
TAFOGD
TAF
KOGD 041120Z 0412/0512 12005KT P6SM SCT200
     FM041900 25008KT P6SM SCT150
     FM050300 17005KT P6SM SKC=



000
FTUS45 KSLC 041120
TAFSLC
TAF
KSLC 041120Z 0412/0518 15007KT P6SM SKC
     FM042000 33007KT P6SM SCT150
     FM050400 16007KT P6SM SKC=



000
FTUS45 KSLC 041120
TAFSLC
TAF
KSLC 041120Z 0412/0518 15007KT P6SM SKC
     FM042000 33007KT P6SM SCT150
     FM050400 16007KT P6SM SKC=



000
FTUS45 KSLC 041120
TAFENV
TAF
KENV 041120Z 0412/0512 VRB04KT P6SM SKC
     FM041600 11006KT P6SM SKC
     FM050300 VRB04KT P6SM SKC
      AMD LTD TO CLD VIS AND WIND=



000
FTUS45 KSLC 041120
TAFLGU
TAF
KLGU 041120Z 0412/0512 VRB03KT 2SM BR BCFG SCT002
      TEMPO 0412/0414 1/4SM FG VV002
     FM041600 VRB05KT P6SM SKC=



000
FTUS45 KSLC 041120
TAFOGD
TAF
KOGD 041120Z 0412/0512 12005KT P6SM SCT200
     FM041900 25008KT P6SM SCT150
     FM050300 17005KT P6SM SKC=



000
FTUS45 KSLC 041120
TAFLGU
TAF
KLGU 041120Z 0412/0512 VRB03KT 2SM BR BCFG SCT002
      TEMPO 0412/0414 1/4SM FG VV002
     FM041600 VRB05KT P6SM SKC=



000
FTUS45 KSLC 041120
TAFENV
TAF
KENV 041120Z 0412/0512 VRB04KT P6SM SKC
     FM041600 11006KT P6SM SKC
     FM050300 VRB04KT P6SM SKC
      AMD LTD TO CLD VIS AND WIND=



000
FTUS45 KSLC 041120
TAFOGD
TAF
KOGD 041120Z 0412/0512 12005KT P6SM SCT200
     FM041900 25008KT P6SM SCT150
     FM050300 17005KT P6SM SKC=



000
FTUS45 KSLC 041120
TAFSGU
TAF
KSGU 041120Z 0412/0512 VRB04KT P6SM SKC
     FM042000 27009KT P6SM SKC
     FM050400 VRB04KT P6SM SKC
      AMD LTD TO CLD VIS AND WIND=



000
FTUS45 KSLC 041120
TAFPVU
TAF
KPVU 041120Z 0412/0512 VRB04KT P6SM SCT120
     FM041700 VRB05KT P6SM SCT150
      AMD LTD TO CLD VIS AND WIND=



000
FTUS45 KSLC 041120
TAFOGD
TAF
KOGD 041120Z 0412/0512 12005KT P6SM SCT200
     FM041900 25008KT P6SM SCT150
     FM050300 17005KT P6SM SKC=



000
FTUS45 KSLC 041120
TAFSGU
TAF
KSGU 041120Z 0412/0512 VRB04KT P6SM SKC
     FM042000 27009KT P6SM SKC
     FM050400 VRB04KT P6SM SKC
      AMD LTD TO CLD VIS AND WIND=



000
FTUS45 KSLC 041120
TAFSLC
TAF
KSLC 041120Z 0412/0518 15007KT P6SM SKC
     FM042000 33007KT P6SM SCT150
     FM050400 16007KT P6SM SKC=



000
FTUS45 KSLC 041120
TAFCDC
TAF
KCDC 041120Z 0412/0512 19006KT P6SM SKC
     FM041600 22009KT P6SM SKC
     FM042000 23011G17KT P6SM SKC
     FM050200 19006KT P6SM SKC=



000
FTUS45 KSLC 041120
TAFSLC
TAF
KSLC 041120Z 0412/0518 15007KT P6SM SKC
     FM042000 33007KT P6SM SCT150
     FM050400 16007KT P6SM SKC=



000
FTUS45 KSLC 041120
TAFPVU
TAF
KPVU 041120Z 0412/0512 VRB04KT P6SM SCT120
     FM041700 VRB05KT P6SM SCT150
      AMD LTD TO CLD VIS AND WIND=



000
FTUS45 KSLC 041120
TAFLGU
TAF
KLGU 041120Z 0412/0512 VRB03KT 2SM BR BCFG SCT002
      TEMPO 0412/0414 1/4SM FG VV002
     FM041600 VRB05KT P6SM SKC=



000
FTUS45 KSLC 040954 AAA
TAFLGU
TAF AMD
KLGU 040954Z 0410/0506 VRB03KT P6SM BCFG FEW001
      TEMPO 0410/0414 1/4SM FG VV002
     FM041600 VRB05KT P6SM SKC=



000
FTUS45 KSLC 040954 AAA
TAFLGU
TAF AMD
KLGU 040954Z 0410/0506 VRB03KT P6SM BCFG FEW001
      TEMPO 0410/0414 1/4SM FG VV002
     FM041600 VRB05KT P6SM SKC=



000
FTUS45 KSLC 040954 AAA
TAFLGU
TAF AMD
KLGU 040954Z 0410/0506 VRB03KT P6SM BCFG FEW001
      TEMPO 0410/0414 1/4SM FG VV002
     FM041600 VRB05KT P6SM SKC=



000
FTUS45 KSLC 040905 AAA
TAFSLC
TAF AMD
KSLC 040905Z 0409/0512 15007KT P6SM SKC
     FM042000 33007KT P6SM SCT150
     FM050400 16007KT P6SM SKC=



000
FTUS45 KSLC 040905 AAA
TAFSLC
TAF AMD
KSLC 040905Z 0409/0512 15007KT P6SM SKC
     FM042000 33007KT P6SM SCT150
     FM050400 16007KT P6SM SKC=



000
FTUS45 KSLC 040905 AAA
TAFSLC
TAF AMD
KSLC 040905Z 0409/0512 15007KT P6SM SKC
     FM042000 33007KT P6SM SCT150
     FM050400 16007KT P6SM SKC=



000
FTUS45 KSLC 040549
TAFBCE
TAF
KBCE 040549Z 0406/0506 02009KT P6SM SKC
     FM040800 27006KT P6SM SKC
     FM041600 19009KT P6SM FEW080
     FM050200 27007KT P6SM SKC=



000
FTUS45 KSLC 040549
TAFSGU
TAF
KSGU 040549Z 0406/0506 VRB04KT P6SM SKC
     FM042000 27009KT P6SM SKC
     FM050400 VRB04KT P6SM SKC
      AMD LTD TO CLD VIS AND WIND=



000
FTUS45 KSLC 040549
TAFENV
TAF
KENV 040549Z 0406/0506 06008KT P6SM SCT150
     FM041600 11006KT P6SM SKC
     FM050300 VRB04KT P6SM SKC
      AMD LTD TO CLD VIS AND WIND=



000
FTUS45 KSLC 040549
TAFSLC
TAF
KSLC 040549Z 0406/0512 15007KT P6SM SCT150
     FM042000 33007KT P6SM SCT150
     FM050400 16007KT P6SM SKC=



000
FTUS45 KSLC 040549
TAFPVU
TAF
KPVU 040549Z 0406/0506 VRB04KT P6SM SCT120
     FM041700 VRB05KT P6SM SCT150
      AMD LTD TO CLD VIS AND WIND=



000
FTUS45 KSLC 040549
TAFSGU
TAF
KSGU 040549Z 0406/0506 VRB04KT P6SM SKC
     FM042000 27009KT P6SM SKC
     FM050400 VRB04KT P6SM SKC
      AMD LTD TO CLD VIS AND WIND=



000
FTUS45 KSLC 040549
TAFCDC
TAF
KCDC 040549Z 0406/0506 19006KT P6SM SKC
     FM041600 22009KT P6SM SKC
     FM042000 23011G17KT P6SM SKC
     FM050200 19006KT P6SM SKC=



000
FTUS45 KSLC 040549
TAFSLC
TAF
KSLC 040549Z 0406/0512 15007KT P6SM SCT150
     FM042000 33007KT P6SM SCT150
     FM050400 16007KT P6SM SKC=



000
FTUS45 KSLC 040549
TAFCDC
TAF
KCDC 040549Z 0406/0506 19006KT P6SM SKC
     FM041600 22009KT P6SM SKC
     FM042000 23011G17KT P6SM SKC
     FM050200 19006KT P6SM SKC=



000
FTUS45 KSLC 040549
TAFENV
TAF
KENV 040549Z 0406/0506 06008KT P6SM SCT150
     FM041600 11006KT P6SM SKC
     FM050300 VRB04KT P6SM SKC
      AMD LTD TO CLD VIS AND WIND=



000
FTUS45 KSLC 040549
TAFPVU
TAF
KPVU 040549Z 0406/0506 VRB04KT P6SM SCT120
     FM041700 VRB05KT P6SM SCT150
      AMD LTD TO CLD VIS AND WIND=



000
FTUS45 KSLC 040549
TAFOGD
TAF
KOGD 040549Z 0406/0506 12005KT P6SM SCT200
     FM041900 25008KT P6SM SCT150
     FM050300 17005KT P6SM SKC=



000
FTUS45 KSLC 040549
TAFBCE
TAF
KBCE 040549Z 0406/0506 02009KT P6SM SKC
     FM040800 27006KT P6SM SKC
     FM041600 19009KT P6SM FEW080
     FM050200 27007KT P6SM SKC=



000
FTUS45 KSLC 040549
TAFLGU
TAF
KLGU 040549Z 0406/0506 VRB05KT P6SM SCT120
     FM041100 VRB03KT P6SM BCFG FEW001
     FM041600 VRB05KT P6SM SKC=



000
FTUS45 KSLC 040549
TAFOGD
TAF
KOGD 040549Z 0406/0506 12005KT P6SM SCT200
     FM041900 25008KT P6SM SCT150
     FM050300 17005KT P6SM SKC=



000
FTUS45 KSLC 040549
TAFLGU
TAF
KLGU 040549Z 0406/0506 VRB05KT P6SM SCT120
     FM041100 VRB03KT P6SM BCFG FEW001
     FM041600 VRB05KT P6SM SKC=



000
FTUS45 KSLC 040303 AAB
TAFSLC
TAF AMD
KSLC 040303Z 0403/0506 15007KT P6SM SCT120 BKN150
     FM041600 16011KT P6SM SCT150
     FM042000 33007KT P6SM SCT150
     FM050400 16007KT P6SM SKC=



000
FTUS45 KSLC 040303 AAB
TAFSLC
TAF AMD
KSLC 040303Z 0403/0506 15007KT P6SM SCT120 BKN150
     FM041600 16011KT P6SM SCT150
     FM042000 33007KT P6SM SCT150
     FM050400 16007KT P6SM SKC=



000
FTUS45 KSLC 032332
TAFENV
TAF
KENV 032332Z 0400/0424 12006KT P6SM VCSH SCT080 BKN110
      TEMPO 0400/0402 23015G25KT -TSRA SCT060CB BKN090
     FM040300 12012KT P6SM SCT080 BKN130
     FM040500 06008KT P6SM SCT150
     FM041600 11006KT P6SM SKC
      AMD LTD TO CLD VIS AND WIND=



000
FTUS45 KSLC 032332
TAFPVU
TAF
KPVU 032332Z 0400/0424 27006KT P6SM SCT080 BKN130
     FM040300 VRB04KT P6SM VCSH SCT080 BKN120
     FM040800 11005KT P6SM SCT090 BKN150
     FM041700 16005KT P6SM SKC
      AMD LTD TO CLD VIS AND WIND=



000
FTUS45 KSLC 032332
TAFLGU
TAF
KLGU 032332Z 0400/0424 05006KT P6SM -RA SCT035 BKN070
     FM040200 11007KT P6SM VCSH SCT050 BKN090
     FM040500 VRB05KT P6SM SCT060 BKN120
     FM041700 33008KT P6SM SCT150=



000
FTUS45 KSLC 032332
TAFSGU
TAF
KSGU 032332Z 0400/0424 27009KT P6SM SKC
     FM040400 VRB04KT P6SM SKC
     FM042000 27009KT P6SM SKC
      AMD LTD TO CLD VIS AND WIND=



000
FTUS45 KSLC 032332
TAFCDC
TAF
KCDC 032332Z 0400/0424 21012G20KT P6SM FEW100
     FM040200 19006KT P6SM SKC
     FM041600 22009KT P6SM SKC
     FM042000 23011G17KT P6SM SKC=



000
FTUS45 KSLC 032332
TAFBCE
TAF
KBCE 032332Z 0400/0424 25012KT P6SM SCT090
     FM040100 25007KT P6SM SKC
     FM040800 15006KT P6SM SKC
     FM041600 25009KT P6SM SKC=



000
FTUS45 KSLC 032332
TAFSLC
TAF
KSLC 032332Z 0400/0506 10005KT P6SM SCT050 BKN100
     FM040400 16007KT P6SM SCT080 BKN130
     FM042000 33007KT P6SM SCT150
     FM050400 16007KT P6SM SKC=



000
FTUS45 KSLC 032332
TAFOGD
TAF
KOGD 032332Z 0400/0424 11005KT P6SM VCSH BKN080 OVC100
     FM040200 10010KT P6SM SCT080 BKN130
     FM040400 12005KT P6SM BKN130
     FM041900 25008KT P6SM SCT150=



000
FTUS45 KSLC 032332
TAFLGU
TAF
KLGU 032332Z 0400/0424 05006KT P6SM -RA SCT035 BKN070
     FM040200 11007KT P6SM VCSH SCT050 BKN090
     FM040500 VRB05KT P6SM SCT060 BKN120
     FM041700 33008KT P6SM SCT150=



000
FTUS45 KSLC 032332
TAFBCE
TAF
KBCE 032332Z 0400/0424 25012KT P6SM SCT090
     FM040100 25007KT P6SM SKC
     FM040800 15006KT P6SM SKC
     FM041600 25009KT P6SM SKC=



000
FTUS45 KSLC 032332
TAFSLC
TAF
KSLC 032332Z 0400/0506 10005KT P6SM SCT050 BKN100
     FM040400 16007KT P6SM SCT080 BKN130
     FM042000 33007KT P6SM SCT150
     FM050400 16007KT P6SM SKC=



000
FTUS45 KSLC 032332
TAFPVU
TAF
KPVU 032332Z 0400/0424 27006KT P6SM SCT080 BKN130
     FM040300 VRB04KT P6SM VCSH SCT080 BKN120
     FM040800 11005KT P6SM SCT090 BKN150
     FM041700 16005KT P6SM SKC
      AMD LTD TO CLD VIS AND WIND=



000
FTUS45 KSLC 032332
TAFSGU
TAF
KSGU 032332Z 0400/0424 27009KT P6SM SKC
     FM040400 VRB04KT P6SM SKC
     FM042000 27009KT P6SM SKC
      AMD LTD TO CLD VIS AND WIND=



000
FTUS45 KSLC 032332
TAFOGD
TAF
KOGD 032332Z 0400/0424 11005KT P6SM VCSH BKN080 OVC100
     FM040200 10010KT P6SM SCT080 BKN130
     FM040400 12005KT P6SM BKN130
     FM041900 25008KT P6SM SCT150=



000
FTUS45 KSLC 032332
TAFENV
TAF
KENV 032332Z 0400/0424 12006KT P6SM VCSH SCT080 BKN110
      TEMPO 0400/0402 23015G25KT -TSRA SCT060CB BKN090
     FM040300 12012KT P6SM SCT080 BKN130
     FM040500 06008KT P6SM SCT150
     FM041600 11006KT P6SM SKC
      AMD LTD TO CLD VIS AND WIND=



000
FTUS45 KSLC 032332
TAFCDC
TAF
KCDC 032332Z 0400/0424 21012G20KT P6SM FEW100
     FM040200 19006KT P6SM SKC
     FM041600 22009KT P6SM SKC
     FM042000 23011G17KT P6SM SKC=



000
FTUS45 KSLC 032332
TAFOGD
TAF
KOGD 032332Z 0400/0424 11005KT P6SM VCSH BKN080 OVC100
     FM040200 10010KT P6SM SCT080 BKN130
     FM040400 12005KT P6SM BKN130
     FM041900 25008KT P6SM SCT150=



000
FTUS45 KSLC 032332
TAFENV
TAF
KENV 032332Z 0400/0424 12006KT P6SM VCSH SCT080 BKN110
      TEMPO 0400/0402 23015G25KT -TSRA SCT060CB BKN090
     FM040300 12012KT P6SM SCT080 BKN130
     FM040500 06008KT P6SM SCT150
     FM041600 11006KT P6SM SKC
      AMD LTD TO CLD VIS AND WIND=



000
FTUS45 KSLC 032332
TAFOGD
TAF
KOGD 032332Z 0400/0424 11005KT P6SM VCSH BKN080 OVC100
     FM040200 10010KT P6SM SCT080 BKN130
     FM040400 12005KT P6SM BKN130
     FM041900 25008KT P6SM SCT150=



000
FTUS45 KSLC 032332
TAFPVU
TAF
KPVU 032332Z 0400/0424 27006KT P6SM SCT080 BKN130
     FM040300 VRB04KT P6SM VCSH SCT080 BKN120
     FM040800 11005KT P6SM SCT090 BKN150
     FM041700 16005KT P6SM SKC
      AMD LTD TO CLD VIS AND WIND=



000
FTUS45 KSLC 032332
TAFSLC
TAF
KSLC 032332Z 0400/0506 10005KT P6SM SCT050 BKN100
     FM040400 16007KT P6SM SCT080 BKN130
     FM042000 33007KT P6SM SCT150
     FM050400 16007KT P6SM SKC=



000
FTUS45 KSLC 032332
TAFBCE
TAF
KBCE 032332Z 0400/0424 25012KT P6SM SCT090
     FM040100 25007KT P6SM SKC
     FM040800 15006KT P6SM SKC
     FM041600 25009KT P6SM SKC=



000
FTUS45 KSLC 032332
TAFCDC
TAF
KCDC 032332Z 0400/0424 21012G20KT P6SM FEW100
     FM040200 19006KT P6SM SKC
     FM041600 22009KT P6SM SKC
     FM042000 23011G17KT P6SM SKC=



000
FTUS45 KSLC 032332
TAFSGU
TAF
KSGU 032332Z 0400/0424 27009KT P6SM SKC
     FM040400 VRB04KT P6SM SKC
     FM042000 27009KT P6SM SKC
      AMD LTD TO CLD VIS AND WIND=



000
FTUS45 KSLC 032332
TAFLGU
TAF
KLGU 032332Z 0400/0424 05006KT P6SM -RA SCT035 BKN070
     FM040200 11007KT P6SM VCSH SCT050 BKN090
     FM040500 VRB05KT P6SM SCT060 BKN120
     FM041700 33008KT P6SM SCT150=



000
FTUS45 KSLC 032332
TAFSGU
TAF
KSGU 032332Z 0400/0424 27009KT P6SM SKC
     FM040400 VRB04KT P6SM SKC
     FM042000 27009KT P6SM SKC
      AMD LTD TO CLD VIS AND WIND=



000
FTUS45 KSLC 032332
TAFSLC
TAF
KSLC 032332Z 0400/0506 10005KT P6SM SCT050 BKN100
     FM040400 16007KT P6SM SCT080 BKN130
     FM042000 33007KT P6SM SCT150
     FM050400 16007KT P6SM SKC=



000
FTUS45 KSLC 032332
TAFENV
TAF
KENV 032332Z 0400/0424 12006KT P6SM VCSH SCT080 BKN110
      TEMPO 0400/0402 23015G25KT -TSRA SCT060CB BKN090
     FM040300 12012KT P6SM SCT080 BKN130
     FM040500 06008KT P6SM SCT150
     FM041600 11006KT P6SM SKC
      AMD LTD TO CLD VIS AND WIND=



000
FTUS45 KSLC 032332
TAFBCE
TAF
KBCE 032332Z 0400/0424 25012KT P6SM SCT090
     FM040100 25007KT P6SM SKC
     FM040800 15006KT P6SM SKC
     FM041600 25009KT P6SM SKC=



000
FTUS45 KSLC 032332
TAFCDC
TAF
KCDC 032332Z 0400/0424 21012G20KT P6SM FEW100
     FM040200 19006KT P6SM SKC
     FM041600 22009KT P6SM SKC
     FM042000 23011G17KT P6SM SKC=



000
FTUS45 KSLC 032332
TAFLGU
TAF
KLGU 032332Z 0400/0424 05006KT P6SM -RA SCT035 BKN070
     FM040200 11007KT P6SM VCSH SCT050 BKN090
     FM040500 VRB05KT P6SM SCT060 BKN120
     FM041700 33008KT P6SM SCT150=



000
FTUS45 KSLC 032332
TAFPVU
TAF
KPVU 032332Z 0400/0424 27006KT P6SM SCT080 BKN130
     FM040300 VRB04KT P6SM VCSH SCT080 BKN120
     FM040800 11005KT P6SM SCT090 BKN150
     FM041700 16005KT P6SM SKC
      AMD LTD TO CLD VIS AND WIND=



000
FTUS45 KSLC 032238 AAC
TAFSLC
TAF AMD
KSLC 032238Z 0323/0424 06005KT P6SM -RA FEW020 BKN080
     FM040100 05006KT P6SM SCT040 BKN110
     FM040400 15007KT P6SM SCT120
     FM042000 33007KT P6SM FEW150=



000
FTUS45 KSLC 032238 AAC
TAFSLC
TAF AMD
KSLC 032238Z 0323/0424 06005KT P6SM -RA FEW020 BKN080
     FM040100 05006KT P6SM SCT040 BKN110
     FM040400 15007KT P6SM SCT120
     FM042000 33007KT P6SM FEW150=



000
FTUS45 KSLC 032238 AAC
TAFSLC
TAF AMD
KSLC 032238Z 0323/0424 06005KT P6SM -RA FEW020 BKN080
     FM040100 05006KT P6SM SCT040 BKN110
     FM040400 15007KT P6SM SCT120
     FM042000 33007KT P6SM FEW150=



000
FTUS45 KSLC 032238 AAC
TAFSLC
TAF AMD
KSLC 032238Z 0323/0424 06005KT P6SM -RA FEW020 BKN080
     FM040100 05006KT P6SM SCT040 BKN110
     FM040400 15007KT P6SM SCT120
     FM042000 33007KT P6SM FEW150=



000
FTUS45 KSLC 032232 AAC
TAFOGD
TAF AMD
KOGD 032232Z 0323/0418 32005KT P6SM -RA SCT010 OVC060
      TEMPO 0323/0401 5SM RA BR SCT007 OVC030
     FM040100 16006KT P6SM VCSH SCT030 BKN080
     FM040400 12005KT P6SM SCT050 BKN120=



000
FTUS45 KSLC 032232 AAC
TAFOGD
TAF AMD
KOGD 032232Z 0323/0418 32005KT P6SM -RA SCT010 OVC060
      TEMPO 0323/0401 5SM RA BR SCT007 OVC030
     FM040100 16006KT P6SM VCSH SCT030 BKN080
     FM040400 12005KT P6SM SCT050 BKN120=



000
FTUS45 KSLC 032110 AAB
TAFSLC
TAF AMD
KSLC 032110Z 0321/0424 35005KT P6SM -RA FEW025 OVC050
      TEMPO 0322/0323 4SM RA BR BKN015 OVC025
     FM040100 32007KT P6SM VCSH SCT040 BKN080
     FM040400 15007KT P6SM SCT120
     FM042000 33007KT P6SM FEW150=



000
FTUS45 KSLC 032110 AAB
TAFSLC
TAF AMD
KSLC 032110Z 0321/0424 35005KT P6SM -RA FEW025 OVC050
      TEMPO 0322/0323 4SM RA BR BKN015 OVC025
     FM040100 32007KT P6SM VCSH SCT040 BKN080
     FM040400 15007KT P6SM SCT120
     FM042000 33007KT P6SM FEW150=



000
FTUS45 KSLC 032102 AAA
TAFBCE
TAF AMD
KBCE 032102Z 0321/0418 28012G20KT P6SM VCSH BKN070 BKN110
     FM040200 27007KT P6SM FEW120=



000
FTUS45 KSLC 032102 AAA
TAFBCE
TAF AMD
KBCE 032102Z 0321/0418 28012G20KT P6SM VCSH BKN070 BKN110
     FM040200 27007KT P6SM FEW120=



000
FTUS45 KSLC 032101 AAA
TAFCDC
TAF AMD
KCDC 032101Z 0321/0418 18012G20KT P6SM SCT120
     FM040200 17006KT P6SM SKC=



000
FTUS45 KSLC 032101 AAA
TAFCDC
TAF AMD
KCDC 032101Z 0321/0418 18012G20KT P6SM SCT120
     FM040200 17006KT P6SM SKC=



000
FTUS45 KSLC 032059 AAA
TAFLGU
TAF AMD
KLGU 032059Z 0321/0418 35006KT P6SM -RA SCT010 OVC040
      TEMPO 0322/0402 4SM RA BR BKN008 OVC020
     FM040700 VRB05KT P6SM SCT030 OVC050=



000
FTUS45 KSLC 032059 AAA
TAFLGU
TAF AMD
KLGU 032059Z 0321/0418 35006KT P6SM -RA SCT010 OVC040
      TEMPO 0322/0402 4SM RA BR BKN008 OVC020
     FM040700 VRB05KT P6SM SCT030 OVC050=



000
FTUS45 KSLC 032059 AAA
TAFLGU
TAF AMD
KLGU 032059Z 0321/0418 35006KT P6SM -RA SCT010 OVC040
      TEMPO 0322/0402 4SM RA BR BKN008 OVC020
     FM040700 VRB05KT P6SM SCT030 OVC050=



000
FTUS45 KSLC 032059 AAA
TAFLGU
TAF AMD
KLGU 032059Z 0321/0418 35006KT P6SM -RA SCT010 OVC040
      TEMPO 0322/0402 4SM RA BR BKN008 OVC020
     FM040700 VRB05KT P6SM SCT030 OVC050=



000
FTUS45 KSLC 032050 AAB
TAFOGD
TAF AMD
KOGD 032050Z 0321/0418 32005KT 5SM -RA BR SCT007 OVC020
      TEMPO 0321/0401 2SM RA BR BKN007 OVC015
     FM040300 16006KT P6SM -RA SCT015 OVC030
     FM040600 12005KT P6SM SCT020 OVC040=



000
FTUS45 KSLC 032050 AAB
TAFOGD
TAF AMD
KOGD 032050Z 0321/0418 32005KT 5SM -RA BR SCT007 OVC020
      TEMPO 0321/0401 2SM RA BR BKN007 OVC015
     FM040300 16006KT P6SM -RA SCT015 OVC030
     FM040600 12005KT P6SM SCT020 OVC040=



000
FTUS45 KSLC 031858 AAA
TAFOGD
TAF AMD
KOGD 031858Z 0319/0418 32005KT 6SM -RA BR FEW040 OVC070
      TEMPO 0319/0320 2SM RA BR BKN010
     FM032100 32006KT P6SM VCSH SCT060 BKN090
     FM032300 32006KT P6SM SCT100 BKN150
     FM040300 16006KT P6SM SCT150=



000
FTUS45 KSLC 031858 AAA
TAFOGD
TAF AMD
KOGD 031858Z 0319/0418 32005KT 6SM -RA BR FEW040 OVC070
      TEMPO 0319/0320 2SM RA BR BKN010
     FM032100 32006KT P6SM VCSH SCT060 BKN090
     FM032300 32006KT P6SM SCT100 BKN150
     FM040300 16006KT P6SM SCT150=



000
FTUS45 KSLC 031858 AAA
TAFOGD
TAF AMD
KOGD 031858Z 0319/0418 32005KT 6SM -RA BR FEW040 OVC070
      TEMPO 0319/0320 2SM RA BR BKN010
     FM032100 32006KT P6SM VCSH SCT060 BKN090
     FM032300 32006KT P6SM SCT100 BKN150
     FM040300 16006KT P6SM SCT150=



000
FTUS45 KSLC 031858 AAA
TAFOGD
TAF AMD
KOGD 031858Z 0319/0418 32005KT 6SM -RA BR FEW040 OVC070
      TEMPO 0319/0320 2SM RA BR BKN010
     FM032100 32006KT P6SM VCSH SCT060 BKN090
     FM032300 32006KT P6SM SCT100 BKN150
     FM040300 16006KT P6SM SCT150=



000
FTUS45 KSLC 031741
TAFENV
TAF
KENV 031741Z 0318/0418 12006KT P6SM VCSH SCT080 BKN100
     FM032100 12006KT P6SM SCT120
     FM040100 29006KT P6SM SCT150
      AMD LTD TO CLD VIS AND WIND=



000
FTUS45 KSLC 031741
TAFPVU
TAF
KPVU 031741Z 0318/0418 29011KT P6SM -RA SCT040 OVC060
     FM032000 31010KT P6SM VCSH SCT060 BKN100
     FM032200 31010KT P6SM SCT100 BKN150
     FM040300 VRB04KT P6SM SCT150
      AMD LTD TO CLD VIS AND WIND=



000
FTUS45 KSLC 031741
TAFENV
TAF
KENV 031741Z 0318/0418 12006KT P6SM VCSH SCT080 BKN100
     FM032100 12006KT P6SM SCT120
     FM040100 29006KT P6SM SCT150
      AMD LTD TO CLD VIS AND WIND=



000
FTUS45 KSLC 031741
TAFLGU
TAF
KLGU 031741Z 0318/0418 18009KT P6SM -RA SCT060 OVC080
      TEMPO 0318/0319 4SM RA BR OVC060
     FM032200 02007KT P6SM VCSH SCT060 BKN090
     FM040200 VRB05KT P6SM SCT150=



000
FTUS45 KSLC 031741
TAFOGD
TAF
KOGD 031741Z 0318/0418 32005KT 6SM -RA BR FEW040 OVC070
     FM032100 32006KT P6SM VCSH SCT060 BKN090
     FM032300 32006KT P6SM SCT100 BKN150
     FM040300 16006KT P6SM SCT150=



000
FTUS45 KSLC 031741
TAFSGU
TAF
KSGU 031741Z 0318/0418 VRB05KT P6SM SKC
     FM032000 24009KT P6SM FEW100
     FM040400 VRB04KT P6SM SKC
      AMD LTD TO CLD VIS AND WIND=



000
FTUS45 KSLC 031741
TAFLGU
TAF
KLGU 031741Z 0318/0418 18009KT P6SM -RA SCT060 OVC080
      TEMPO 0318/0319 4SM RA BR OVC060
     FM032200 02007KT P6SM VCSH SCT060 BKN090
     FM040200 VRB05KT P6SM SCT150=



000
FTUS45 KSLC 031741
TAFSLC
TAF
KSLC 031741Z 0318/0424 35010KT 6SM -RA BR FEW020 OVC070
     FM032000 33007KT P6SM VCSH SCT060 BKN090
     FM032200 32007KT P6SM SCT100 BKN150
     FM040400 15007KT P6SM SCT150
     FM042000 33007KT P6SM FEW150=



000
FTUS45 KSLC 031741
TAFOGD
TAF
KOGD 031741Z 0318/0418 32005KT 6SM -RA BR FEW040 OVC070
     FM032100 32006KT P6SM VCSH SCT060 BKN090
     FM032300 32006KT P6SM SCT100 BKN150
     FM040300 16006KT P6SM SCT150=



000
FTUS45 KSLC 031741
TAFBCE
TAF
KBCE 031741Z 0318/0418 26006KT P6SM FEW080
     FM031900 25012KT P6SM VCSH SCT080 SCT120
     FM040200 27007KT P6SM FEW120=



000
FTUS45 KSLC 031741
TAFCDC
TAF
KCDC 031741Z 0318/0418 17008KT P6SM FEW080
     FM031900 22012G20KT P6SM SCT080
     FM040200 17006KT P6SM SKC=



000
FTUS45 KSLC 031741
TAFPVU
TAF
KPVU 031741Z 0318/0418 29011KT P6SM -RA SCT040 OVC060
     FM032000 31010KT P6SM VCSH SCT060 BKN100
     FM032200 31010KT P6SM SCT100 BKN150
     FM040300 VRB04KT P6SM SCT150
      AMD LTD TO CLD VIS AND WIND=



000
FTUS45 KSLC 031741
TAFBCE
TAF
KBCE 031741Z 0318/0418 26006KT P6SM FEW080
     FM031900 25012KT P6SM VCSH SCT080 SCT120
     FM040200 27007KT P6SM FEW120=



000
FTUS45 KSLC 031741
TAFSGU
TAF
KSGU 031741Z 0318/0418 VRB05KT P6SM SKC
     FM032000 24009KT P6SM FEW100
     FM040400 VRB04KT P6SM SKC
      AMD LTD TO CLD VIS AND WIND=



000
FTUS45 KSLC 031741
TAFSLC
TAF
KSLC 031741Z 0318/0424 35010KT 6SM -RA BR FEW020 OVC070
     FM032000 33007KT P6SM VCSH SCT060 BKN090
     FM032200 32007KT P6SM SCT100 BKN150
     FM040400 15007KT P6SM SCT150
     FM042000 33007KT P6SM FEW150=



000
FTUS45 KSLC 031741
TAFCDC
TAF
KCDC 031741Z 0318/0418 17008KT P6SM FEW080
     FM031900 22012G20KT P6SM SCT080
     FM040200 17006KT P6SM SKC=



000
FTUS45 KSLC 031651 AAA
TAFLGU
TAF AMD
KLGU 031651Z 0317/0412 18007KT P6SM -RA SCT070 BKN100
      TEMPO 0317/0319 5SM -RA BR SCT060 OVC080
     FM031900 07006KT P6SM -SHRA SCT060 BKN100
     FM032300 36005KT P6SM SCT100 BKN150=



000
FTUS45 KSLC 031651 AAA
TAFLGU
TAF AMD
KLGU 031651Z 0317/0412 18007KT P6SM -RA SCT070 BKN100
      TEMPO 0317/0319 5SM -RA BR SCT060 OVC080
     FM031900 07006KT P6SM -SHRA SCT060 BKN100
     FM032300 36005KT P6SM SCT100 BKN150=



000
FTUS45 KSLC 031606 AAB
TAFENV
TAF AMD
KENV 031606Z 0316/0412 14010KT P6SM -RA SCT070 OVC090
     FM031900 12006KT P6SM SCT100
     FM040000 29006KT P6SM SCT250
      AMD LTD TO CLD VIS AND WIND=



000
FTUS45 KSLC 031606 AAB
TAFOGD
TAF AMD
KOGD 031606Z 0316/0412 17011KT P6SM -SHRA SCT060 BKN080
      TEMPO 0316/0318 3SM RA BKN060
     FM031800 17008KT P6SM VCSH SCT060 BKN100
     FM040000 15005KT P6SM BKN250=



000
FTUS45 KSLC 031606 AAB
TAFENV
TAF AMD
KENV 031606Z 0316/0412 14010KT P6SM -RA SCT070 OVC090
     FM031900 12006KT P6SM SCT100
     FM040000 29006KT P6SM SCT250
      AMD LTD TO CLD VIS AND WIND=



000
FTUS45 KSLC 031606 AAB
TAFOGD
TAF AMD
KOGD 031606Z 0316/0412 17011KT P6SM -SHRA SCT060 BKN080
      TEMPO 0316/0318 3SM RA BKN060
     FM031800 17008KT P6SM VCSH SCT060 BKN100
     FM040000 15005KT P6SM BKN250=



000
FTUS45 KSLC 031606 AAB
TAFOGD
TAF AMD
KOGD 031606Z 0316/0412 17011KT P6SM -SHRA SCT060 BKN080
      TEMPO 0316/0318 3SM RA BKN060
     FM031800 17008KT P6SM VCSH SCT060 BKN100
     FM040000 15005KT P6SM BKN250=



000
FTUS45 KSLC 031606 AAB
TAFOGD
TAF AMD
KOGD 031606Z 0316/0412 17011KT P6SM -SHRA SCT060 BKN080
      TEMPO 0316/0318 3SM RA BKN060
     FM031800 17008KT P6SM VCSH SCT060 BKN100
     FM040000 15005KT P6SM BKN250=



000
FTUS45 KSLC 031606 AAB
TAFENV
TAF AMD
KENV 031606Z 0316/0412 14010KT P6SM -RA SCT070 OVC090
     FM031900 12006KT P6SM SCT100
     FM040000 29006KT P6SM SCT250
      AMD LTD TO CLD VIS AND WIND=



000
FTUS45 KSLC 031553 AAC
TAFSLC
TAF AMD
KSLC 031553Z 0316/0418 35010KT P6SM -RA FEW020 BKN060
     FM031900 33007KT P6SM VCSH SCT060 BKN090
     FM032100 32007KT P6SM SCT100 BKN150
     FM040400 15007KT P6SM SCT150=



000
FTUS45 KSLC 031553 AAC
TAFSLC
TAF AMD
KSLC 031553Z 0316/0418 35010KT P6SM -RA FEW020 BKN060
     FM031900 33007KT P6SM VCSH SCT060 BKN090
     FM032100 32007KT P6SM SCT100 BKN150
     FM040400 15007KT P6SM SCT150=



000
FTUS45 KSLC 031521 AAB
TAFPVU
TAF AMD
KPVU 031521Z 0315/0412 29011KT P6SM -RA SCT020 BKN040
      TEMPO 0315/0318 BKN020
     FM032000 31010KT P6SM SCT090 SCT120
     FM040300 VRB04KT P6SM SCT150
      AMD LTD TO CLD VIS AND WIND=



000
FTUS45 KSLC 031521 AAB
TAFPVU
TAF AMD
KPVU 031521Z 0315/0412 29011KT P6SM -RA SCT020 BKN040
      TEMPO 0315/0318 BKN020
     FM032000 31010KT P6SM SCT090 SCT120
     FM040300 VRB04KT P6SM SCT150
      AMD LTD TO CLD VIS AND WIND=



000
FTUS45 KSLC 031404 AAA
TAFOGD
TAF AMD
KOGD 031404Z 0314/0412 17011KT P6SM -SHRA SCT060 BKN080
      TEMPO 0314/0316 3SM RA BKN060
     FM031800 17008KT P6SM VCSH SCT060 BKN100
     FM040000 15005KT P6SM BKN250=



000
FTUS45 KSLC 031404 AAA
TAFOGD
TAF AMD
KOGD 031404Z 0314/0412 17011KT P6SM -SHRA SCT060 BKN080
      TEMPO 0314/0316 3SM RA BKN060
     FM031800 17008KT P6SM VCSH SCT060 BKN100
     FM040000 15005KT P6SM BKN250=



000
FTUS45 KSLC 031404 AAA
TAFPVU
TAF AMD
KPVU 031404Z 0314/0412 12007KT P6SM -SHRA SCT020 BKN040
      TEMPO 0314/0316 BKN020
     FM031600 16006KT P6SM VCSH SCT080 BKN110
     FM032000 31010KT P6SM SCT090 SCT120
     FM040300 VRB04KT P6SM SCT150
      AMD LTD TO CLD VIS AND WIND=



000
FTUS45 KSLC 031404 AAA
TAFPVU
TAF AMD
KPVU 031404Z 0314/0412 12007KT P6SM -SHRA SCT020 BKN040
      TEMPO 0314/0316 BKN020
     FM031600 16006KT P6SM VCSH SCT080 BKN110
     FM032000 31010KT P6SM SCT090 SCT120
     FM040300 VRB04KT P6SM SCT150
      AMD LTD TO CLD VIS AND WIND=



000
FTUS45 KSLC 031403 AAC
TAFSLC
TAF AMD
KSLC 031403Z 0314/0418 31010KT 6SM RA SCT050 OVC070
     FM031700 17009KT P6SM -SHRA SCT060 BKN090
     FM032100 32009KT P6SM VCSH SCT080 BKN120
     FM040400 15007KT P6SM SCT150=



000
FTUS45 KSLC 031403 AAC
TAFSLC
TAF AMD
KSLC 031403Z 0314/0418 31010KT 6SM RA SCT050 OVC070
     FM031700 17009KT P6SM -SHRA SCT060 BKN090
     FM032100 32009KT P6SM VCSH SCT080 BKN120
     FM040400 15007KT P6SM SCT150=



000
FTUS45 KSLC 031239 AAA
TAFENV
TAF AMD
KENV 031239Z 0313/0412 14014G22KT P6SM -RA SCT070 OVC090
     FM031900 12006KT P6SM SCT100
     FM040000 29006KT P6SM SCT250
      AMD LTD TO CLD VIS AND WIND=



000
FTUS45 KSLC 031239 AAA
TAFENV
TAF AMD
KENV 031239Z 0313/0412 14014G22KT P6SM -RA SCT070 OVC090
     FM031900 12006KT P6SM SCT100
     FM040000 29006KT P6SM SCT250
      AMD LTD TO CLD VIS AND WIND=



000
FTUS45 KSLC 031239 AAA
TAFENV
TAF AMD
KENV 031239Z 0313/0412 14014G22KT P6SM -RA SCT070 OVC090
     FM031900 12006KT P6SM SCT100
     FM040000 29006KT P6SM SCT250
      AMD LTD TO CLD VIS AND WIND=



000
FTUS45 KSLC 031239 AAA
TAFENV
TAF AMD
KENV 031239Z 0313/0412 14014G22KT P6SM -RA SCT070 OVC090
     FM031900 12006KT P6SM SCT100
     FM040000 29006KT P6SM SCT250
      AMD LTD TO CLD VIS AND WIND=



000
FTUS45 KSLC 031237 AAB
TAFSLC
TAF AMD
KSLC 031237Z 0313/0418 14006KT P6SM -SHRA SCT050 OVC080
     FM031500 14006KT P6SM -RA SCT040 OVC060
     FM031900 30007KT P6SM VCSH SCT080 BKN120
     FM040400 15007KT P6SM SCT150=



000
FTUS45 KSLC 031237 AAB
TAFSLC
TAF AMD
KSLC 031237Z 0313/0418 14006KT P6SM -SHRA SCT050 OVC080
     FM031500 14006KT P6SM -RA SCT040 OVC060
     FM031900 30007KT P6SM VCSH SCT080 BKN120
     FM040400 15007KT P6SM SCT150=



000
FTUS45 KSLC 031237 AAB
TAFSLC
TAF AMD
KSLC 031237Z 0313/0418 14006KT P6SM -SHRA SCT050 OVC080
     FM031500 14006KT P6SM -RA SCT040 OVC060
     FM031900 30007KT P6SM VCSH SCT080 BKN120
     FM040400 15007KT P6SM SCT150=



000
FTUS45 KSLC 031237 AAB
TAFSLC
TAF AMD
KSLC 031237Z 0313/0418 14006KT P6SM -SHRA SCT050 OVC080
     FM031500 14006KT P6SM -RA SCT040 OVC060
     FM031900 30007KT P6SM VCSH SCT080 BKN120
     FM040400 15007KT P6SM SCT150=



000
FTUS45 KSLC 031120
TAFBCE
TAF
KBCE 031120Z 0312/0412 27006KT P6SM BCFG FEW001 SCT080
     FM031500 27004KT P6SM SKC
     FM031800 25012KT P6SM FEW100
     FM040300 27007KT P6SM SKC=



000
FTUS45 KSLC 031120
TAFLGU
TAF
KLGU 031120Z 0312/0412 18007KT P6SM VCSH SCT070 BKN100
     FM031700 07006KT P6SM -SHRA SCT060 BKN100
     FM032300 36005KT P6SM SCT100 BKN150=



000
FTUS45 KSLC 031120
TAFPVU
TAF
KPVU 031120Z 0312/0412 12007KT P6SM -SHRA FEW015 BKN040
      TEMPO 0312/0314 BKN010
     FM031600 16006KT P6SM VCSH SCT080 BKN110
     FM032000 31010KT P6SM SCT090 SCT120
     FM040300 VRB04KT P6SM SCT150
      AMD LTD TO CLD VIS AND WIND=



000
FTUS45 KSLC 031120
TAFSGU
TAF
KSGU 031120Z 0312/0412 10005KT P6SM SKC
     FM032000 24009KT P6SM SKC
     FM040400 10004KT P6SM SKC
      AMD LTD TO CLD VIS AND WIND=



000
FTUS45 KSLC 031120
TAFLGU
TAF
KLGU 031120Z 0312/0412 18007KT P6SM VCSH SCT070 BKN100
     FM031700 07006KT P6SM -SHRA SCT060 BKN100
     FM032300 36005KT P6SM SCT100 BKN150=



000
FTUS45 KSLC 031120
TAFCDC
TAF
KCDC 031120Z 0312/0412 17008KT P6SM SCT120
     FM031900 22012G20KT P6SM SKC
     FM040200 20008KT P6SM SKC=



000
FTUS45 KSLC 031120
TAFLGU
TAF
KLGU 031120Z 0312/0412 18007KT P6SM VCSH SCT070 BKN100
     FM031700 07006KT P6SM -SHRA SCT060 BKN100
     FM032300 36005KT P6SM SCT100 BKN150=



000
FTUS45 KSLC 031120
TAFCDC
TAF
KCDC 031120Z 0312/0412 17008KT P6SM SCT120
     FM031900 22012G20KT P6SM SKC
     FM040200 20008KT P6SM SKC=



000
FTUS45 KSLC 031120
TAFPVU
TAF
KPVU 031120Z 0312/0412 12007KT P6SM -SHRA FEW015 BKN040
      TEMPO 0312/0314 BKN010
     FM031600 16006KT P6SM VCSH SCT080 BKN110
     FM032000 31010KT P6SM SCT090 SCT120
     FM040300 VRB04KT P6SM SCT150
      AMD LTD TO CLD VIS AND WIND=



000
FTUS45 KSLC 031120
TAFOGD
TAF
KOGD 031120Z 0312/0412 17011KT P6SM -SHRA SCT060 BKN080
     FM031800 17008KT P6SM VCSH SCT060 BKN100
     FM040000 15005KT P6SM BKN250=



000
FTUS45 KSLC 031120
TAFPVU
TAF
KPVU 031120Z 0312/0412 12007KT P6SM -SHRA FEW015 BKN040
      TEMPO 0312/0314 BKN010
     FM031600 16006KT P6SM VCSH SCT080 BKN110
     FM032000 31010KT P6SM SCT090 SCT120
     FM040300 VRB04KT P6SM SCT150
      AMD LTD TO CLD VIS AND WIND=



000
FTUS45 KSLC 031120
TAFBCE
TAF
KBCE 031120Z 0312/0412 27006KT P6SM BCFG FEW001 SCT080
     FM031500 27004KT P6SM SKC
     FM031800 25012KT P6SM FEW100
     FM040300 27007KT P6SM SKC=



000
FTUS45 KSLC 031120
TAFSLC
TAF
KSLC 031120Z 0312/0418 16009KT P6SM -SHRA SCT040 BKN060
     FM031900 30007KT P6SM VCSH SCT080 BKN120
     FM040400 15007KT P6SM SCT150=



000
FTUS45 KSLC 031120
TAFPVU
TAF
KPVU 031120Z 0312/0412 12007KT P6SM -SHRA FEW015 BKN040
      TEMPO 0312/0314 BKN010
     FM031600 16006KT P6SM VCSH SCT080 BKN110
     FM032000 31010KT P6SM SCT090 SCT120
     FM040300 VRB04KT P6SM SCT150
      AMD LTD TO CLD VIS AND WIND=



000
FTUS45 KSLC 031120
TAFENV
TAF
KENV 031120Z 0312/0412 24007KT P6SM VCSH SCT070 BKN100
     FM031900 12006KT P6SM SCT100
     FM040000 29006KT P6SM SCT250
      AMD LTD TO CLD VIS AND WIND=



000
FTUS45 KSLC 031120
TAFSLC
TAF
KSLC 031120Z 0312/0418 16009KT P6SM -SHRA SCT040 BKN060
     FM031900 30007KT P6SM VCSH SCT080 BKN120
     FM040400 15007KT P6SM SCT150=



000
FTUS45 KSLC 031120
TAFENV
TAF
KENV 031120Z 0312/0412 24007KT P6SM VCSH SCT070 BKN100
     FM031900 12006KT P6SM SCT100
     FM040000 29006KT P6SM SCT250
      AMD LTD TO CLD VIS AND WIND=



000
FTUS45 KSLC 031120
TAFSGU
TAF
KSGU 031120Z 0312/0412 10005KT P6SM SKC
     FM032000 24009KT P6SM SKC
     FM040400 10004KT P6SM SKC
      AMD LTD TO CLD VIS AND WIND=



000
FTUS45 KSLC 031120
TAFCDC
TAF
KCDC 031120Z 0312/0412 17008KT P6SM SCT120
     FM031900 22012G20KT P6SM SKC
     FM040200 20008KT P6SM SKC=



000
FTUS45 KSLC 031120
TAFSLC
TAF
KSLC 031120Z 0312/0418 16009KT P6SM -SHRA SCT040 BKN060
     FM031900 30007KT P6SM VCSH SCT080 BKN120
     FM040400 15007KT P6SM SCT150=



000
FTUS45 KSLC 031120
TAFBCE
TAF
KBCE 031120Z 0312/0412 27006KT P6SM BCFG FEW001 SCT080
     FM031500 27004KT P6SM SKC
     FM031800 25012KT P6SM FEW100
     FM040300 27007KT P6SM SKC=



000
FTUS45 KSLC 031120
TAFSGU
TAF
KSGU 031120Z 0312/0412 10005KT P6SM SKC
     FM032000 24009KT P6SM SKC
     FM040400 10004KT P6SM SKC
      AMD LTD TO CLD VIS AND WIND=



000
FTUS45 KSLC 031120
TAFSGU
TAF
KSGU 031120Z 0312/0412 10005KT P6SM SKC
     FM032000 24009KT P6SM SKC
     FM040400 10004KT P6SM SKC
      AMD LTD TO CLD VIS AND WIND=



000
FTUS45 KSLC 031120
TAFCDC
TAF
KCDC 031120Z 0312/0412 17008KT P6SM SCT120
     FM031900 22012G20KT P6SM SKC
     FM040200 20008KT P6SM SKC=



000
FTUS45 KSLC 031120
TAFENV
TAF
KENV 031120Z 0312/0412 24007KT P6SM VCSH SCT070 BKN100
     FM031900 12006KT P6SM SCT100
     FM040000 29006KT P6SM SCT250
      AMD LTD TO CLD VIS AND WIND=



000
FTUS45 KSLC 031120
TAFOGD
TAF
KOGD 031120Z 0312/0412 17011KT P6SM -SHRA SCT060 BKN080
     FM031800 17008KT P6SM VCSH SCT060 BKN100
     FM040000 15005KT P6SM BKN250=



000
FTUS45 KSLC 031120
TAFBCE
TAF
KBCE 031120Z 0312/0412 27006KT P6SM BCFG FEW001 SCT080
     FM031500 27004KT P6SM SKC
     FM031800 25012KT P6SM FEW100
     FM040300 27007KT P6SM SKC=



000
FTUS45 KSLC 031120
TAFENV
TAF
KENV 031120Z 0312/0412 24007KT P6SM VCSH SCT070 BKN100
     FM031900 12006KT P6SM SCT100
     FM040000 29006KT P6SM SCT250
      AMD LTD TO CLD VIS AND WIND=



000
FTUS45 KSLC 031120
TAFOGD
TAF
KOGD 031120Z 0312/0412 17011KT P6SM -SHRA SCT060 BKN080
     FM031800 17008KT P6SM VCSH SCT060 BKN100
     FM040000 15005KT P6SM BKN250=



000
FTUS45 KSLC 031120
TAFLGU
TAF
KLGU 031120Z 0312/0412 18007KT P6SM VCSH SCT070 BKN100
     FM031700 07006KT P6SM -SHRA SCT060 BKN100
     FM032300 36005KT P6SM SCT100 BKN150=



000
FTUS45 KSLC 031120
TAFOGD
TAF
KOGD 031120Z 0312/0412 17011KT P6SM -SHRA SCT060 BKN080
     FM031800 17008KT P6SM VCSH SCT060 BKN100
     FM040000 15005KT P6SM BKN250=



000
FTUS45 KSLC 030844 AAA
TAFOGD
TAF AMD
KOGD 030844Z 0309/0406 17016G24KT P6SM VCSH SCT100 BKN130
     FM031100 17014KT P6SM -SHRA SCT050 BKN070
     FM031800 17008KT P6SM VCSH SCT060 BKN100
     FM040000 06005KT P6SM BKN250=



000
FTUS45 KSLC 030844 AAA
TAFOGD
TAF AMD
KOGD 030844Z 0309/0406 17016G24KT P6SM VCSH SCT100 BKN130
     FM031100 17014KT P6SM -SHRA SCT050 BKN070
     FM031800 17008KT P6SM VCSH SCT060 BKN100
     FM040000 06005KT P6SM BKN250=



000
FTUS45 KSLC 030843 AAB
TAFSLC
TAF AMD
KSLC 030843Z 0309/0412 16018G26KT P6SM -SHRA SCT070 BKN090
     FM031000 17011G18KT P6SM -SHRA SCT050 BKN070
     FM031600 17009KT P6SM VCSH SCT080 BKN120
     FM032000 27011KT P6SM VCSH SCT090 SCT150
     FM040400 15007KT P6SM SCT150=



000
FTUS45 KSLC 030843 AAB
TAFSLC
TAF AMD
KSLC 030843Z 0309/0412 16018G26KT P6SM -SHRA SCT070 BKN090
     FM031000 17011G18KT P6SM -SHRA SCT050 BKN070
     FM031600 17009KT P6SM VCSH SCT080 BKN120
     FM032000 27011KT P6SM VCSH SCT090 SCT150
     FM040400 15007KT P6SM SCT150=



000
FTUS45 KSLC 030718 AAA
TAFENV
TAF AMD
KENV 030718Z 0307/0406 15014G22KT P6SM SCT120 BKN150
     FM031300 10007KT P6SM VCSH SCT080 BKN120
     FM040000 29006KT P6SM SCT250
      AMD LTD TO CLD VIS AND WIND=



000
FTUS45 KSLC 030718 AAA
TAFENV
TAF AMD
KENV 030718Z 0307/0406 15014G22KT P6SM SCT120 BKN150
     FM031300 10007KT P6SM VCSH SCT080 BKN120
     FM040000 29006KT P6SM SCT250
      AMD LTD TO CLD VIS AND WIND=



000
FTUS45 KSLC 030718 AAA
TAFENV
TAF AMD
KENV 030718Z 0307/0406 15014G22KT P6SM SCT120 BKN150
     FM031300 10007KT P6SM VCSH SCT080 BKN120
     FM040000 29006KT P6SM SCT250
      AMD LTD TO CLD VIS AND WIND=



000
FTUS45 KSLC 030713 AAA
TAFSLC
TAF AMD
KSLC 030713Z 0307/0412 16020G30KT P6SM VCSH SCT090 BKN150
     FM031100 17011G18KT P6SM -SHRA SCT050 BKN080
     FM032000 27011KT P6SM SCT090 SCT150
     FM040400 15007KT P6SM SCT150=



000
FTUS45 KSLC 030713 AAA
TAFSLC
TAF AMD
KSLC 030713Z 0307/0412 16020G30KT P6SM VCSH SCT090 BKN150
     FM031100 17011G18KT P6SM -SHRA SCT050 BKN080
     FM032000 27011KT P6SM SCT090 SCT150
     FM040400 15007KT P6SM SCT150=



000
FTUS45 KSLC 030547
TAFLGU
TAF
KLGU 030547Z 0306/0406 35007KT P6SM FEW120 BKN150
     FM030900 17009KT P6SM SCT100 BKN130
     FM031600 07006KT P6SM -SHRA SCT060 BKN100
     FM032300 36005KT P6SM SCT100 BKN150=



000
FTUS45 KSLC 030547
TAFSLC
TAF
KSLC 030547Z 0306/0412 16014G22KT P6SM VCSH SCT090 BKN150
     FM032000 27011KT P6SM SCT090 SCT150
     FM040400 15007KT P6SM SCT150=



000
FTUS45 KSLC 030547
TAFSLC
TAF
KSLC 030547Z 0306/0412 16014G22KT P6SM VCSH SCT090 BKN150
     FM032000 27011KT P6SM SCT090 SCT150
     FM040400 15007KT P6SM SCT150=



000
FTUS45 KSLC 030547
TAFLGU
TAF
KLGU 030547Z 0306/0406 35007KT P6SM FEW120 BKN150
     FM030900 17009KT P6SM SCT100 BKN130
     FM031600 07006KT P6SM -SHRA SCT060 BKN100
     FM032300 36005KT P6SM SCT100 BKN150=



000
FTUS45 KSLC 030547
TAFCDC
TAF
KCDC 030547Z 0306/0406 17008KT P6SM SCT120
     FM031900 22012G20KT P6SM SKC
     FM040200 20008KT P6SM SKC=



000
FTUS45 KSLC 030547
TAFPVU
TAF
KPVU 030547Z 0306/0406 12007KT P6SM -SHRA SCT070 BKN100
     FM031300 16006KT P6SM VCSH SCT080 BKN110
     FM032000 31010KT P6SM SCT090 SCT120
      AMD LTD TO CLD VIS AND WIND=



000
FTUS45 KSLC 030547
TAFSGU
TAF
KSGU 030547Z 0306/0406 06006KT P6SM SKC
     FM032000 24008KT P6SM SKC
     FM040400 06004KT P6SM SKC
      AMD LTD TO CLD VIS AND WIND=



000
FTUS45 KSLC 030547
TAFENV
TAF
KENV 030547Z 0306/0406 28007KT P6SM SCT120 BKN150
     FM031300 10007KT P6SM VCSH SCT080 BKN120
     FM040000 29006KT P6SM SCT250
      AMD LTD TO CLD VIS AND WIND=



000
FTUS45 KSLC 030547
TAFBCE
TAF
KBCE 030547Z 0306/0406 27006KT P6SM SKC
     FM031800 25012KT P6SM FEW100
     FM040300 27007KT P6SM SKC=



000
FTUS45 KSLC 030547
TAFOGD
TAF
KOGD 030547Z 0306/0406 16010KT P6SM VCSH SCT100 BKN130
     FM031500 16009KT P6SM -SHRA OVC060
     FM040000 06005KT P6SM BKN250=



000
FTUS45 KSLC 030547
TAFCDC
TAF
KCDC 030547Z 0306/0406 17008KT P6SM SCT120
     FM031900 22012G20KT P6SM SKC
     FM040200 20008KT P6SM SKC=



000
FTUS45 KSLC 030547
TAFPVU
TAF
KPVU 030547Z 0306/0406 12007KT P6SM -SHRA SCT070 BKN100
     FM031300 16006KT P6SM VCSH SCT080 BKN110
     FM032000 31010KT P6SM SCT090 SCT120
      AMD LTD TO CLD VIS AND WIND=



000
FTUS45 KSLC 030547
TAFSGU
TAF
KSGU 030547Z 0306/0406 06006KT P6SM SKC
     FM032000 24008KT P6SM SKC
     FM040400 06004KT P6SM SKC
      AMD LTD TO CLD VIS AND WIND=



000
FTUS45 KSLC 030547
TAFENV
TAF
KENV 030547Z 0306/0406 28007KT P6SM SCT120 BKN150
     FM031300 10007KT P6SM VCSH SCT080 BKN120
     FM040000 29006KT P6SM SCT250
      AMD LTD TO CLD VIS AND WIND=



000
FTUS45 KSLC 030547
TAFBCE
TAF
KBCE 030547Z 0306/0406 27006KT P6SM SKC
     FM031800 25012KT P6SM FEW100
     FM040300 27007KT P6SM SKC=



000
FTUS45 KSLC 030547
TAFOGD
TAF
KOGD 030547Z 0306/0406 16010KT P6SM VCSH SCT100 BKN130
     FM031500 16009KT P6SM -SHRA OVC060
     FM040000 06005KT P6SM BKN250=



000
FTUS45 KSLC 030547
TAFBCE
TAF
KBCE 030547Z 0306/0406 27006KT P6SM SKC
     FM031800 25012KT P6SM FEW100
     FM040300 27007KT P6SM SKC=



000
FTUS45 KSLC 030547
TAFPVU
TAF
KPVU 030547Z 0306/0406 12007KT P6SM -SHRA SCT070 BKN100
     FM031300 16006KT P6SM VCSH SCT080 BKN110
     FM032000 31010KT P6SM SCT090 SCT120
      AMD LTD TO CLD VIS AND WIND=



000
FTUS45 KSLC 030547
TAFLGU
TAF
KLGU 030547Z 0306/0406 35007KT P6SM FEW120 BKN150
     FM030900 17009KT P6SM SCT100 BKN130
     FM031600 07006KT P6SM -SHRA SCT060 BKN100
     FM032300 36005KT P6SM SCT100 BKN150=



000
FTUS45 KSLC 030547
TAFPVU
TAF
KPVU 030547Z 0306/0406 12007KT P6SM -SHRA SCT070 BKN100
     FM031300 16006KT P6SM VCSH SCT080 BKN110
     FM032000 31010KT P6SM SCT090 SCT120
      AMD LTD TO CLD VIS AND WIND=



000
FTUS45 KSLC 030547
TAFSGU
TAF
KSGU 030547Z 0306/0406 06006KT P6SM SKC
     FM032000 24008KT P6SM SKC
     FM040400 06004KT P6SM SKC
      AMD LTD TO CLD VIS AND WIND=



000
FTUS45 KSLC 030547
TAFOGD
TAF
KOGD 030547Z 0306/0406 16010KT P6SM VCSH SCT100 BKN130
     FM031500 16009KT P6SM -SHRA OVC060
     FM040000 06005KT P6SM BKN250=



000
FTUS45 KSLC 030547
TAFBCE
TAF
KBCE 030547Z 0306/0406 27006KT P6SM SKC
     FM031800 25012KT P6SM FEW100
     FM040300 27007KT P6SM SKC=



000
FTUS45 KSLC 030547
TAFSLC
TAF
KSLC 030547Z 0306/0412 16014G22KT P6SM VCSH SCT090 BKN150
     FM032000 27011KT P6SM SCT090 SCT150
     FM040400 15007KT P6SM SCT150=



000
FTUS45 KSLC 030547
TAFCDC
TAF
KCDC 030547Z 0306/0406 17008KT P6SM SCT120
     FM031900 22012G20KT P6SM SKC
     FM040200 20008KT P6SM SKC=



000
FTUS45 KSLC 030547
TAFENV
TAF
KENV 030547Z 0306/0406 28007KT P6SM SCT120 BKN150
     FM031300 10007KT P6SM VCSH SCT080 BKN120
     FM040000 29006KT P6SM SCT250
      AMD LTD TO CLD VIS AND WIND=



000
FTUS45 KSLC 030547
TAFSGU
TAF
KSGU 030547Z 0306/0406 06006KT P6SM SKC
     FM032000 24008KT P6SM SKC
     FM040400 06004KT P6SM SKC
      AMD LTD TO CLD VIS AND WIND=



000
FTUS45 KSLC 030547
TAFLGU
TAF
KLGU 030547Z 0306/0406 35007KT P6SM FEW120 BKN150
     FM030900 17009KT P6SM SCT100 BKN130
     FM031600 07006KT P6SM -SHRA SCT060 BKN100
     FM032300 36005KT P6SM SCT100 BKN150=



000
FTUS45 KSLC 030547
TAFOGD
TAF
KOGD 030547Z 0306/0406 16010KT P6SM VCSH SCT100 BKN130
     FM031500 16009KT P6SM -SHRA OVC060
     FM040000 06005KT P6SM BKN250=



000
FTUS45 KSLC 030547
TAFCDC
TAF
KCDC 030547Z 0306/0406 17008KT P6SM SCT120
     FM031900 22012G20KT P6SM SKC
     FM040200 20008KT P6SM SKC=



000
FTUS45 KSLC 030547
TAFENV
TAF
KENV 030547Z 0306/0406 28007KT P6SM SCT120 BKN150
     FM031300 10007KT P6SM VCSH SCT080 BKN120
     FM040000 29006KT P6SM SCT250
      AMD LTD TO CLD VIS AND WIND=



000
FTUS45 KSLC 030253 AAB
TAFSLC
TAF AMD
KSLC 030253Z 0303/0406 15014KT P6SM SCT090 BKN150
     FM030800 14011KT P6SM -SHRA SCT080 BKN110
     FM031500 19012KT P6SM SCT090 BKN130
     FM032000 27011KT P6SM SCT090 SCT150
     FM040400 15007KT P6SM SCT150=



000
FTUS45 KSLC 030253 AAB
TAFSLC
TAF AMD
KSLC 030253Z 0303/0406 15014KT P6SM SCT090 BKN150
     FM030800 14011KT P6SM -SHRA SCT080 BKN110
     FM031500 19012KT P6SM SCT090 BKN130
     FM032000 27011KT P6SM SCT090 SCT150
     FM040400 15007KT P6SM SCT150=



000
FTUS45 KSLC 030253 AAB
TAFSLC
TAF AMD
KSLC 030253Z 0303/0406 15014KT P6SM SCT090 BKN150
     FM030800 14011KT P6SM -SHRA SCT080 BKN110
     FM031500 19012KT P6SM SCT090 BKN130
     FM032000 27011KT P6SM SCT090 SCT150
     FM040400 15007KT P6SM SCT150=



000
FTUS45 KSLC 030250 AAA
TAFPVU
TAF AMD
KPVU 030250Z 0303/0324 11012KT P6SM -SHRA SCT080 BKN100
     FM030500 12007KT P6SM SCT100 BKN130
     FM030800 13005KT P6SM -SHRA SCT070 BKN090
     FM031300 16006KT P6SM SCT080 BKN110
     FM032000 31010KT P6SM SCT090 SCT120
      AMD LTD TO CLD VIS AND WIND=



000
FTUS45 KSLC 030250 AAA
TAFPVU
TAF AMD
KPVU 030250Z 0303/0324 11012KT P6SM -SHRA SCT080 BKN100
     FM030500 12007KT P6SM SCT100 BKN130
     FM030800 13005KT P6SM -SHRA SCT070 BKN090
     FM031300 16006KT P6SM SCT080 BKN110
     FM032000 31010KT P6SM SCT090 SCT120
      AMD LTD TO CLD VIS AND WIND=



000
FTUS45 KSLC 030135 AAA
TAFENV
TAF AMD
KENV 030135Z 0302/0324 14015G25KT P6SM SCT120 BKN150
     FM030800 16009KT P6SM SCT120 BKN150
     FM031300 30012G20KT P6SM FEW120 SCT150
      AMD LTD TO CLD VIS AND WIND=



000
FTUS45 KSLC 030135 AAA
TAFENV
TAF AMD
KENV 030135Z 0302/0324 14015G25KT P6SM SCT120 BKN150
     FM030800 16009KT P6SM SCT120 BKN150
     FM031300 30012G20KT P6SM FEW120 SCT150
      AMD LTD TO CLD VIS AND WIND=



000
FTUS45 KSLC 030135 AAA
TAFENV
TAF AMD
KENV 030135Z 0302/0324 14015G25KT P6SM SCT120 BKN150
     FM030800 16009KT P6SM SCT120 BKN150
     FM031300 30012G20KT P6SM FEW120 SCT150
      AMD LTD TO CLD VIS AND WIND=



000
FTUS45 KSLC 030135 AAA
TAFENV
TAF AMD
KENV 030135Z 0302/0324 14015G25KT P6SM SCT120 BKN150
     FM030800 16009KT P6SM SCT120 BKN150
     FM031300 30012G20KT P6SM FEW120 SCT150
      AMD LTD TO CLD VIS AND WIND=



000
FTUS45 KSLC 030123 AAA
TAFLGU
TAF AMD
KLGU 030123Z 0301/0324 17012KT P6SM FEW120 BKN150
     FM030900 17008KT P6SM VCSH SCT100 BKN130
     FM031600 17010KT P6SM -SHRA SCT080 BKN110=



000
FTUS45 KSLC 030123 AAA
TAFLGU
TAF AMD
KLGU 030123Z 0301/0324 17012KT P6SM FEW120 BKN150
     FM030900 17008KT P6SM VCSH SCT100 BKN130
     FM031600 17010KT P6SM -SHRA SCT080 BKN110=



000
FTUS45 KSLC 030123 AAA
TAFLGU
TAF AMD
KLGU 030123Z 0301/0324 17012KT P6SM FEW120 BKN150
     FM030900 17008KT P6SM VCSH SCT100 BKN130
     FM031600 17010KT P6SM -SHRA SCT080 BKN110=



000
FTUS45 KSLC 030048 AAA
TAFSLC
TAF AMD
KSLC 030048Z 0301/0406 15015G27KT P6SM SCT090 BKN150
     FM030500 16010G18KT P6SM -SHRA SCT080 BKN110
     FM032000 30009KT P6SM VCSH SCT090 SCT120=



000
FTUS45 KSLC 030048 AAA
TAFSLC
TAF AMD
KSLC 030048Z 0301/0406 15015G27KT P6SM SCT090 BKN150
     FM030500 16010G18KT P6SM -SHRA SCT080 BKN110
     FM032000 30009KT P6SM VCSH SCT090 SCT120=



000
FTUS45 KSLC 022332
TAFPVU
TAF
KPVU 022332Z 0300/0324 17012G20KT P6SM VCSH BKN090 BKN150
     FM030400 15010KT P6SM -SHRA SCT080 BKN100
     FM032000 31010KT P6SM SCT090 SCT120
      AMD LTD TO CLD VIS AND WIND=



000
FTUS45 KSLC 022332
TAFENV
TAF
KENV 022332Z 0300/0324 19013G22KT P6SM SCT120 BKN150
     FM031300 30012G20KT P6SM FEW120 SCT150
      AMD LTD TO CLD VIS AND WIND=



000
FTUS45 KSLC 022332
TAFBCE
TAF
KBCE 022332Z 0300/0324 03012G20KT P6SM -TSRA SCT050CB BKN090
     FM030200 35007KT P6SM SCT100 BKN120
     FM030900 33006KT P6SM SCT120
     FM031800 25012KT P6SM FEW100 SCT120=



000
FTUS45 KSLC 022332
TAFSGU
TAF
KSGU 022332Z 0300/0324 25008KT P6SM FEW090 SCT130
     FM030400 06006KT P6SM SCT130
     FM032000 24008KT P6SM SKC
      AMD LTD TO CLD VIS AND WIND=



000
FTUS45 KSLC 022332
TAFLGU
TAF
KLGU 022332Z 0300/0324 35006KT P6SM FEW120 BKN180
     FM030200 17010KT P6SM FEW120 BKN150
     FM030900 17008KT P6SM VCSH SCT100 BKN130
     FM031600 17010KT P6SM -SHRA SCT080 BKN110=



000
FTUS45 KSLC 022332
TAFOGD
TAF
KOGD 022332Z 0300/0324 16014G24KT P6SM VCSH FEW100 BKN150
     FM030600 17008KT P6SM VCSH SCT100 BKN130
     FM031500 18010G16KT P6SM -SHRA SCT080 BKN110=



000
FTUS45 KSLC 022332
TAFSLC
TAF
KSLC 022332Z 0300/0406 15014G24KT P6SM VCSH SCT090 BKN150
     FM030500 16010G18KT P6SM -SHRA SCT080 BKN110
     FM032000 30009KT P6SM VCSH SCT090 SCT120=



000
FTUS45 KSLC 022332
TAFPVU
TAF
KPVU 022332Z 0300/0324 17012G20KT P6SM VCSH BKN090 BKN150
     FM030400 15010KT P6SM -SHRA SCT080 BKN100
     FM032000 31010KT P6SM SCT090 SCT120
      AMD LTD TO CLD VIS AND WIND=



000
FTUS45 KSLC 022332
TAFCDC
TAF
KCDC 022332Z 0300/0324 16008KT P6SM FEW090 BKN120
     FM030900 17008KT P6SM SCT120
     FM031900 22010KT P6SM SKC=



000
FTUS45 KSLC 022332
TAFBCE
TAF
KBCE 022332Z 0300/0324 03012G20KT P6SM -TSRA SCT050CB BKN090
     FM030200 35007KT P6SM SCT100 BKN120
     FM030900 33006KT P6SM SCT120
     FM031800 25012KT P6SM FEW100 SCT120=



000
FTUS45 KSLC 022332
TAFSGU
TAF
KSGU 022332Z 0300/0324 25008KT P6SM FEW090 SCT130
     FM030400 06006KT P6SM SCT130
     FM032000 24008KT P6SM SKC
      AMD LTD TO CLD VIS AND WIND=



000
FTUS45 KSLC 022332
TAFLGU
TAF
KLGU 022332Z 0300/0324 35006KT P6SM FEW120 BKN180
     FM030200 17010KT P6SM FEW120 BKN150
     FM030900 17008KT P6SM VCSH SCT100 BKN130
     FM031600 17010KT P6SM -SHRA SCT080 BKN110=



000
FTUS45 KSLC 022332
TAFSLC
TAF
KSLC 022332Z 0300/0406 15014G24KT P6SM VCSH SCT090 BKN150
     FM030500 16010G18KT P6SM -SHRA SCT080 BKN110
     FM032000 30009KT P6SM VCSH SCT090 SCT120=



000
FTUS45 KSLC 022332
TAFOGD
TAF
KOGD 022332Z 0300/0324 16014G24KT P6SM VCSH FEW100 BKN150
     FM030600 17008KT P6SM VCSH SCT100 BKN130
     FM031500 18010G16KT P6SM -SHRA SCT080 BKN110=



000
FTUS45 KSLC 022332
TAFCDC
TAF
KCDC 022332Z 0300/0324 16008KT P6SM FEW090 BKN120
     FM030900 17008KT P6SM SCT120
     FM031900 22010KT P6SM SKC=



000
FTUS45 KSLC 022332
TAFENV
TAF
KENV 022332Z 0300/0324 19013G22KT P6SM SCT120 BKN150
     FM031300 30012G20KT P6SM FEW120 SCT150
      AMD LTD TO CLD VIS AND WIND=



000
FTUS45 KSLC 022332
TAFPVU
TAF
KPVU 022332Z 0300/0324 17012G20KT P6SM VCSH BKN090 BKN150
     FM030400 15010KT P6SM -SHRA SCT080 BKN100
     FM032000 31010KT P6SM SCT090 SCT120
      AMD LTD TO CLD VIS AND WIND=



000
FTUS45 KSLC 022332
TAFOGD
TAF
KOGD 022332Z 0300/0324 16014G24KT P6SM VCSH FEW100 BKN150
     FM030600 17008KT P6SM VCSH SCT100 BKN130
     FM031500 18010G16KT P6SM -SHRA SCT080 BKN110=



000
FTUS45 KSLC 022332
TAFSLC
TAF
KSLC 022332Z 0300/0406 15014G24KT P6SM VCSH SCT090 BKN150
     FM030500 16010G18KT P6SM -SHRA SCT080 BKN110
     FM032000 30009KT P6SM VCSH SCT090 SCT120=



000
FTUS45 KSLC 022332
TAFSGU
TAF
KSGU 022332Z 0300/0324 25008KT P6SM FEW090 SCT130
     FM030400 06006KT P6SM SCT130
     FM032000 24008KT P6SM SKC
      AMD LTD TO CLD VIS AND WIND=



000
FTUS45 KSLC 022332
TAFCDC
TAF
KCDC 022332Z 0300/0324 16008KT P6SM FEW090 BKN120
     FM030900 17008KT P6SM SCT120
     FM031900 22010KT P6SM SKC=



000
FTUS45 KSLC 022332
TAFPVU
TAF
KPVU 022332Z 0300/0324 17012G20KT P6SM VCSH BKN090 BKN150
     FM030400 15010KT P6SM -SHRA SCT080 BKN100
     FM032000 31010KT P6SM SCT090 SCT120
      AMD LTD TO CLD VIS AND WIND=



000
FTUS45 KSLC 022332
TAFLGU
TAF
KLGU 022332Z 0300/0324 35006KT P6SM FEW120 BKN180
     FM030200 17010KT P6SM FEW120 BKN150
     FM030900 17008KT P6SM VCSH SCT100 BKN130
     FM031600 17010KT P6SM -SHRA SCT080 BKN110=



000
FTUS45 KSLC 022332
TAFSLC
TAF
KSLC 022332Z 0300/0406 15014G24KT P6SM VCSH SCT090 BKN150
     FM030500 16010G18KT P6SM -SHRA SCT080 BKN110
     FM032000 30009KT P6SM VCSH SCT090 SCT120=



000
FTUS45 KSLC 022332
TAFENV
TAF
KENV 022332Z 0300/0324 19013G22KT P6SM SCT120 BKN150
     FM031300 30012G20KT P6SM FEW120 SCT150
      AMD LTD TO CLD VIS AND WIND=



000
FTUS45 KSLC 022332
TAFOGD
TAF
KOGD 022332Z 0300/0324 16014G24KT P6SM VCSH FEW100 BKN150
     FM030600 17008KT P6SM VCSH SCT100 BKN130
     FM031500 18010G16KT P6SM -SHRA SCT080 BKN110=



000
FTUS45 KSLC 022332
TAFBCE
TAF
KBCE 022332Z 0300/0324 03012G20KT P6SM -TSRA SCT050CB BKN090
     FM030200 35007KT P6SM SCT100 BKN120
     FM030900 33006KT P6SM SCT120
     FM031800 25012KT P6SM FEW100 SCT120=



000
FTUS45 KSLC 022332
TAFENV
TAF
KENV 022332Z 0300/0324 19013G22KT P6SM SCT120 BKN150
     FM031300 30012G20KT P6SM FEW120 SCT150
      AMD LTD TO CLD VIS AND WIND=



000
FTUS45 KSLC 022332
TAFLGU
TAF
KLGU 022332Z 0300/0324 35006KT P6SM FEW120 BKN180
     FM030200 17010KT P6SM FEW120 BKN150
     FM030900 17008KT P6SM VCSH SCT100 BKN130
     FM031600 17010KT P6SM -SHRA SCT080 BKN110=



000
FTUS45 KSLC 022332
TAFCDC
TAF
KCDC 022332Z 0300/0324 16008KT P6SM FEW090 BKN120
     FM030900 17008KT P6SM SCT120
     FM031900 22010KT P6SM SKC=



000
FTUS45 KSLC 022332
TAFBCE
TAF
KBCE 022332Z 0300/0324 03012G20KT P6SM -TSRA SCT050CB BKN090
     FM030200 35007KT P6SM SCT100 BKN120
     FM030900 33006KT P6SM SCT120
     FM031800 25012KT P6SM FEW100 SCT120=



000
FTUS45 KSLC 022332
TAFSGU
TAF
KSGU 022332Z 0300/0324 25008KT P6SM FEW090 SCT130
     FM030400 06006KT P6SM SCT130
     FM032000 24008KT P6SM SKC
      AMD LTD TO CLD VIS AND WIND=



000
FTUS45 KSLC 022233 AAB
TAFBCE
TAF AMD
KBCE 022233Z 0223/0318 32009KT P6SM -TSRA SCT070CB BKN120
     FM030000 32008KT P6SM VCSH SCT080 BKN130
     FM030300 30006KT P6SM SCT100 SCT150=



000
FTUS45 KSLC 022233 AAB
TAFBCE
TAF AMD
KBCE 022233Z 0223/0318 32009KT P6SM -TSRA SCT070CB BKN120
     FM030000 32008KT P6SM VCSH SCT080 BKN130
     FM030300 30006KT P6SM SCT100 SCT150=



000
FTUS45 KSLC 022231 AAA
TAFOGD
TAF AMD
KOGD 022231Z 0223/0318 28006KT P6SM FEW150 SCT200
     FM022310 15014G24KT P6SM VCSH FEW100 BKN150
     FM030600 17008KT P6SM SCT100 BKN130
     FM031500 18010G16KT P6SM VCSH SCT090 BKN100=



000
FTUS45 KSLC 022231 AAA
TAFOGD
TAF AMD
KOGD 022231Z 0223/0318 28006KT P6SM FEW150 SCT200
     FM022310 15014G24KT P6SM VCSH FEW100 BKN150
     FM030600 17008KT P6SM SCT100 BKN130
     FM031500 18010G16KT P6SM VCSH SCT090 BKN100=



000
FTUS45 KSLC 022229 AAC
TAFPVU
TAF AMD
KPVU 022229Z 0222/0318 17012G20KT P6SM VCSH BKN090 BKN150
     FM030400 15010KT P6SM -SHRA SCT080 BKN100
      AMD LTD TO CLD VIS AND WIND=



000
FTUS45 KSLC 022229 AAC
TAFPVU
TAF AMD
KPVU 022229Z 0222/0318 17012G20KT P6SM VCSH BKN090 BKN150
     FM030400 15010KT P6SM -SHRA SCT080 BKN100
      AMD LTD TO CLD VIS AND WIND=



000
FTUS45 KSLC 022157 AAB
TAFSLC
TAF AMD
KSLC 022157Z 0222/0324 14014G24KT P6SM VCTS SCT090CB BKN150
     FM030200 15012G22KT P6SM VCSH SCT090 BKN150
     FM030600 16010G17KT P6SM -SHRA SCT090 BKN120
     FM031400 17012G20KT P6SM -SHRA SCT080 BKN100=



000
FTUS45 KSLC 022157 AAB
TAFSLC
TAF AMD
KSLC 022157Z 0222/0324 14014G24KT P6SM VCTS SCT090CB BKN150
     FM030200 15012G22KT P6SM VCSH SCT090 BKN150
     FM030600 16010G17KT P6SM -SHRA SCT090 BKN120
     FM031400 17012G20KT P6SM -SHRA SCT080 BKN100=



000
FTUS45 KSLC 022157 AAB
TAFSLC
TAF AMD
KSLC 022157Z 0222/0324 14014G24KT P6SM VCTS SCT090CB BKN150
     FM030200 15012G22KT P6SM VCSH SCT090 BKN150
     FM030600 16010G17KT P6SM -SHRA SCT090 BKN120
     FM031400 17012G20KT P6SM -SHRA SCT080 BKN100=



000
FTUS45 KSLC 022110 AAA
TAFBCE
TAF AMD
KBCE 022110Z 0221/0318 32009KT P6SM VCSH SCT080 BKN120
     FM030300 30006KT P6SM SCT100 SCT150=



000
FTUS45 KSLC 022110 AAA
TAFBCE
TAF AMD
KBCE 022110Z 0221/0318 32009KT P6SM VCSH SCT080 BKN120
     FM030300 30006KT P6SM SCT100 SCT150=



000
FTUS45 KSLC 022108 AAB
TAFSLC
TAF AMD
KSLC 022108Z 0221/0324 29007KT P6SM FEW090 SCT150 BKN200
     FM022300 15014G22KT P6SM VCSH SCT090 BKN150
     FM030600 16010G17KT P6SM -SHRA SCT090 BKN120
     FM031400 17012G20KT P6SM -SHRA SCT080 BKN100=



000
FTUS45 KSLC 022108 AAB
TAFSLC
TAF AMD
KSLC 022108Z 0221/0324 29007KT P6SM FEW090 SCT150 BKN200
     FM022300 15014G22KT P6SM VCSH SCT090 BKN150
     FM030600 16010G17KT P6SM -SHRA SCT090 BKN120
     FM031400 17012G20KT P6SM -SHRA SCT080 BKN100=



000
FTUS45 KSLC 022018 AAB
TAFPVU
TAF AMD
KPVU 022018Z 0220/0318 23008KT P6SM VCSH SCT090 BKN150
      TEMPO 0220/0222 VRB15G25KT -TSRA BKN080CB
     FM030400 15010KT P6SM -SHRA SCT080 BKN100
      AMD LTD TO CLD VIS AND WIND=



000
FTUS45 KSLC 022018 AAB
TAFPVU
TAF AMD
KPVU 022018Z 0220/0318 23008KT P6SM VCSH SCT090 BKN150
      TEMPO 0220/0222 VRB15G25KT -TSRA BKN080CB
     FM030400 15010KT P6SM -SHRA SCT080 BKN100
      AMD LTD TO CLD VIS AND WIND=



000
FTUS45 KSLC 022018 AAB
TAFPVU
TAF AMD
KPVU 022018Z 0220/0318 23008KT P6SM VCSH SCT090 BKN150
      TEMPO 0220/0222 VRB15G25KT -TSRA BKN080CB
     FM030400 15010KT P6SM -SHRA SCT080 BKN100
      AMD LTD TO CLD VIS AND WIND=



000
FTUS45 KSLC 022018 AAB
TAFPVU
TAF AMD
KPVU 022018Z 0220/0318 23008KT P6SM VCSH SCT090 BKN150
      TEMPO 0220/0222 VRB15G25KT -TSRA BKN080CB
     FM030400 15010KT P6SM -SHRA SCT080 BKN100
      AMD LTD TO CLD VIS AND WIND=



000
FTUS45 KSLC 022000 AAA
TAFPVU
TAF AMD
KPVU 022000Z 0220/0318 23008KT P6SM VCSH SCT090 BKN150
     FM030400 15010KT P6SM -SHRA SCT080 BKN100
      AMD LTD TO CLD VIS AND WIND=



000
FTUS45 KSLC 022000 AAA
TAFPVU
TAF AMD
KPVU 022000Z 0220/0318 23008KT P6SM VCSH SCT090 BKN150
     FM030400 15010KT P6SM -SHRA SCT080 BKN100
      AMD LTD TO CLD VIS AND WIND=



000
FTUS45 KSLC 021959 AAA
TAFCDC
TAF AMD
KCDC 021959Z 0220/0318 23010G16KT P6SM VCSH SCT070 BKN100
     FM030200 20010KT P6SM FEW070 BKN100
     FM030900 18008KT P6SM SCT100=



000
FTUS45 KSLC 021959 AAA
TAFCDC
TAF AMD
KCDC 021959Z 0220/0318 23010G16KT P6SM VCSH SCT070 BKN100
     FM030200 20010KT P6SM FEW070 BKN100
     FM030900 18008KT P6SM SCT100=



000
FTUS45 KSLC 021958 AAA
TAFSGU
TAF AMD
KSGU 021958Z 0220/0318 VRB05KT P6SM SCT090 BKN130
     FM022100 25010KT P6SM SCT090 SCT130
     FM030400 VRB04KT P6SM SCT130
      AMD LTD TO CLD VIS AND WIND=



000
FTUS45 KSLC 021958 AAA
TAFSGU
TAF AMD
KSGU 021958Z 0220/0318 VRB05KT P6SM SCT090 BKN130
     FM022100 25010KT P6SM SCT090 SCT130
     FM030400 VRB04KT P6SM SCT130
      AMD LTD TO CLD VIS AND WIND=



000
FTUS45 KSLC 021958 AAA
TAFSGU
TAF AMD
KSGU 021958Z 0220/0318 VRB05KT P6SM SCT090 BKN130
     FM022100 25010KT P6SM SCT090 SCT130
     FM030400 VRB04KT P6SM SCT130
      AMD LTD TO CLD VIS AND WIND=



000
FTUS45 KSLC 021958 AAA
TAFSGU
TAF AMD
KSGU 021958Z 0220/0318 VRB05KT P6SM SCT090 BKN130
     FM022100 25010KT P6SM SCT090 SCT130
     FM030400 VRB04KT P6SM SCT130
      AMD LTD TO CLD VIS AND WIND=



000
FTUS45 KSLC 021740
TAFENV
TAF
KENV 021740Z 0218/0318 14008KT P6SM SCT150 BKN200
     FM030200 23013G21KT P6SM SCT100 BKN150
     FM030900 30011G18KT P6SM FEW100 BKN150
      AMD LTD TO CLD VIS AND WIND=



000
FTUS45 KSLC 021740
TAFPVU
TAF
KPVU 021740Z 0218/0318 VRB04KT P6SM FEW150 SCT200
     FM022000 23008KT P6SM FEW100 BKN150
     FM030400 15010KT P6SM -SHRA SCT080 BKN100
      AMD LTD TO CLD VIS AND WIND=



000
FTUS45 KSLC 021740
TAFSGU
TAF
KSGU 021740Z 0218/0318 VRB05KT P6SM SCT090 BKN120
     FM022000 25010KT P6SM VCSH SCT090 SCT130
     FM030400 VRB04KT P6SM SCT130
      AMD LTD TO CLD VIS AND WIND=



000
FTUS45 KSLC 021740
TAFSLC
TAF
KSLC 021740Z 0218/0324 33007KT P6SM FEW150 BKN200
     FM030000 16010G18KT P6SM FEW100 BKN150
     FM030600 17010G17KT P6SM VCSH SCT100 BKN120
     FM031400 17012G20KT P6SM -SHRA SCT080 BKN100=



000
FTUS45 KSLC 021740
TAFBCE
TAF
KBCE 021740Z 0218/0318 16010G16KT P6SM -SHRA VCTS BKN080CB BKN120
     FM022300 28010KT P6SM VCSH BKN100 BKN120
     FM030300 30006KT P6SM SCT100 SCT150=



000
FTUS45 KSLC 021740
TAFENV
TAF
KENV 021740Z 0218/0318 14008KT P6SM SCT150 BKN200
     FM030200 23013G21KT P6SM SCT100 BKN150
     FM030900 30011G18KT P6SM FEW100 BKN150
      AMD LTD TO CLD VIS AND WIND=



000
FTUS45 KSLC 021740
TAFLGU
TAF
KLGU 021740Z 0218/0318 VRB04KT P6SM SCT200
     FM030300 18008KT P6SM FEW120 BKN150=



000
FTUS45 KSLC 021740
TAFCDC
TAF
KCDC 021740Z 0218/0318 22010G18KT P6SM -SHRA VCTS BKN070CB OVC100
     FM022200 20010G16KT P6SM VCSH SCT070 BKN100
     FM030200 20010KT P6SM FEW070 BKN100
     FM030900 18008KT P6SM SCT100=



000
FTUS45 KSLC 021740
TAFOGD
TAF
KOGD 021740Z 0218/0318 28006KT P6SM FEW150 SCT200
     FM030100 16010G16KT P6SM FEW100 BKN150
     FM030800 17008KT P6SM SCT100 BKN130
     FM031500 18010G16KT P6SM VCSH SCT090 BKN100=



000
FTUS45 KSLC 021740
TAFLGU
TAF
KLGU 021740Z 0218/0318 VRB04KT P6SM SCT200
     FM030300 18008KT P6SM FEW120 BKN150=



000
FTUS45 KSLC 021626 AAB
TAFENV
TAF AMD
KENV 021626Z 0216/0312 12007KT P6SM BKN150
     FM030200 25013G21KT P6SM BKN100 OVC150
     FM030900 30011G18KT P6SM FEW100 BKN150
      AMD LTD TO CLD VIS AND WIND=



000
FTUS45 KSLC 021626 AAB
TAFENV
TAF AMD
KENV 021626Z 0216/0312 12007KT P6SM BKN150
     FM030200 25013G21KT P6SM BKN100 OVC150
     FM030900 30011G18KT P6SM FEW100 BKN150
      AMD LTD TO CLD VIS AND WIND=



000
FTUS45 KSLC 021626 AAB
TAFENV
TAF AMD
KENV 021626Z 0216/0312 12007KT P6SM BKN150
     FM030200 25013G21KT P6SM BKN100 OVC150
     FM030900 30011G18KT P6SM FEW100 BKN150
      AMD LTD TO CLD VIS AND WIND=



000
FTUS45 KSLC 021626 AAB
TAFENV
TAF AMD
KENV 021626Z 0216/0312 12007KT P6SM BKN150
     FM030200 25013G21KT P6SM BKN100 OVC150
     FM030900 30011G18KT P6SM FEW100 BKN150
      AMD LTD TO CLD VIS AND WIND=



000
FTUS45 KSLC 021559 AAC
TAFSGU
TAF AMD
KSGU 021559Z 0216/0312 VRB05KT P6SM SCT090 BKN110
     FM022100 25010KT P6SM SCT130
     FM030400 VRB04KT P6SM FEW130
      AMD LTD TO CLD VIS AND WIND=



000
FTUS45 KSLC 021559 AAC
TAFSGU
TAF AMD
KSGU 021559Z 0216/0312 VRB05KT P6SM SCT090 BKN110
     FM022100 25010KT P6SM SCT130
     FM030400 VRB04KT P6SM FEW130
      AMD LTD TO CLD VIS AND WIND=



000
FTUS45 KSLC 021527 AAB
TAFCDC
TAF AMD
KCDC 021527Z 0215/0312 20011G19KT P6SM VCSH SCT080 BKN110
     FM021600 20008KT P6SM -SHRA BKN070 OVC100
     FM022200 22010G17KT P6SM VCSH SCT070 BKN100
     FM030200 21010KT P6SM FEW070 BKN100
     FM030900 18008KT P6SM SCT100=



000
FTUS45 KSLC 021527 AAB
TAFCDC
TAF AMD
KCDC 021527Z 0215/0312 20011G19KT P6SM VCSH SCT080 BKN110
     FM021600 20008KT P6SM -SHRA BKN070 OVC100
     FM022200 22010G17KT P6SM VCSH SCT070 BKN100
     FM030200 21010KT P6SM FEW070 BKN100
     FM030900 18008KT P6SM SCT100=



000
FTUS45 KSLC 021527 AAB
TAFCDC
TAF AMD
KCDC 021527Z 0215/0312 20011G19KT P6SM VCSH SCT080 BKN110
     FM021600 20008KT P6SM -SHRA BKN070 OVC100
     FM022200 22010G17KT P6SM VCSH SCT070 BKN100
     FM030200 21010KT P6SM FEW070 BKN100
     FM030900 18008KT P6SM SCT100=



000
FTUS45 KSLC 021525 AAA
TAFENV
TAF AMD
KENV 021525Z 0215/0312 30010KT P6SM BKN200
     FM021700 12007KT P6SM BKN150
     FM030200 25013G21KT P6SM BKN100 OVC150
     FM030900 30011G18KT P6SM FEW100 BKN150
      AMD LTD TO CLD VIS AND WIND=



000
FTUS45 KSLC 021525 AAA
TAFENV
TAF AMD
KENV 021525Z 0215/0312 30010KT P6SM BKN200
     FM021700 12007KT P6SM BKN150
     FM030200 25013G21KT P6SM BKN100 OVC150
     FM030900 30011G18KT P6SM FEW100 BKN150
      AMD LTD TO CLD VIS AND WIND=



000
FTUS45 KSLC 021525 AAA
TAFENV
TAF AMD
KENV 021525Z 0215/0312 30010KT P6SM BKN200
     FM021700 12007KT P6SM BKN150
     FM030200 25013G21KT P6SM BKN100 OVC150
     FM030900 30011G18KT P6SM FEW100 BKN150
      AMD LTD TO CLD VIS AND WIND=



000
FTUS45 KSLC 021456 AAC
TAFSLC
TAF AMD
KSLC 021456Z 0215/0318 15008KT P6SM BKN200
     FM021800 33007KT P6SM SCT150 BKN200
     FM030000 16010G18KT P6SM FEW100 OVC150
     FM030600 17010G17KT P6SM SCT100 BKN130=



000
FTUS45 KSLC 021456 AAC
TAFSLC
TAF AMD
KSLC 021456Z 0215/0318 15008KT P6SM BKN200
     FM021800 33007KT P6SM SCT150 BKN200
     FM030000 16010G18KT P6SM FEW100 OVC150
     FM030600 17010G17KT P6SM SCT100 BKN130=



000
FTUS45 KSLC 021456 AAC
TAFSLC
TAF AMD
KSLC 021456Z 0215/0318 15008KT P6SM BKN200
     FM021800 33007KT P6SM SCT150 BKN200
     FM030000 16010G18KT P6SM FEW100 OVC150
     FM030600 17010G17KT P6SM SCT100 BKN130=



000
FTUS45 KSLC 021456 AAC
TAFSLC
TAF AMD
KSLC 021456Z 0215/0318 15008KT P6SM BKN200
     FM021800 33007KT P6SM SCT150 BKN200
     FM030000 16010G18KT P6SM FEW100 OVC150
     FM030600 17010G17KT P6SM SCT100 BKN130=



000
FTUS45 KSLC 021448 AAB
TAFSGU
TAF AMD
KSGU 021448Z 0215/0312 12007KT P6SM VCTS FEW060CB BKN080
     FM021600 VRB05KT P6SM VCSH BKN090 BKN110
     FM022100 25010KT P6SM SCT130
     FM030400 VRB04KT P6SM FEW130
      AMD LTD TO CLD VIS AND WIND=



000
FTUS45 KSLC 021448 AAB
TAFSGU
TAF AMD
KSGU 021448Z 0215/0312 12007KT P6SM VCTS FEW060CB BKN080
     FM021600 VRB05KT P6SM VCSH BKN090 BKN110
     FM022100 25010KT P6SM SCT130
     FM030400 VRB04KT P6SM FEW130
      AMD LTD TO CLD VIS AND WIND=



000
FTUS45 KSLC 021424 AAA
TAFPVU
TAF AMD
KPVU 021424Z 0214/0312 VRB04KT P6SM FEW160
     FM022000 22010KT P6SM FEW100 BKN150
     FM030300 15010KT P6SM VCSH BKN100 BKN130
      AMD LTD TO CLD VIS AND WIND=



000
FTUS45 KSLC 021424 AAA
TAFPVU
TAF AMD
KPVU 021424Z 0214/0312 VRB04KT P6SM FEW160
     FM022000 22010KT P6SM FEW100 BKN150
     FM030300 15010KT P6SM VCSH BKN100 BKN130
      AMD LTD TO CLD VIS AND WIND=



000
FTUS45 KSLC 021330 AAA
TAFCDC
TAF AMD
KCDC 021330Z 0214/0312 19012G19KT P6SM VCSH SCT080 BKN110
     FM021600 20008KT P6SM -SHRA BKN070 OVC100
     FM022200 22010G17KT P6SM VCSH SCT070 BKN100
     FM030200 21010KT P6SM FEW070 BKN100
     FM030900 18008KT P6SM SCT100=



000
FTUS45 KSLC 021330 AAA
TAFCDC
TAF AMD
KCDC 021330Z 0214/0312 19012G19KT P6SM VCSH SCT080 BKN110
     FM021600 20008KT P6SM -SHRA BKN070 OVC100
     FM022200 22010G17KT P6SM VCSH SCT070 BKN100
     FM030200 21010KT P6SM FEW070 BKN100
     FM030900 18008KT P6SM SCT100=



000
FTUS45 KSLC 021316 AAA
TAFSGU
TAF AMD
KSGU 021316Z 0213/0312 12007KT P6SM -SHRA BKN090 BKN110
      TEMPO 0213/0215 VRB15G25KT 5SM TSRA BKN080CB OVC100
     FM021700 22010KT P6SM VCSH FEW100 BKN130
     FM022200 25010KT P6SM SCT130
     FM030400 VRB04KT P6SM FEW130
      AMD LTD TO CLD VIS AND WIND=



000
FTUS45 KSLC 021316 AAA
TAFSGU
TAF AMD
KSGU 021316Z 0213/0312 12007KT P6SM -SHRA BKN090 BKN110
      TEMPO 0213/0215 VRB15G25KT 5SM TSRA BKN080CB OVC100
     FM021700 22010KT P6SM VCSH FEW100 BKN130
     FM022200 25010KT P6SM SCT130
     FM030400 VRB04KT P6SM FEW130
      AMD LTD TO CLD VIS AND WIND=



000
FTUS45 KSLC 021316 AAA
TAFSGU
TAF AMD
KSGU 021316Z 0213/0312 12007KT P6SM -SHRA BKN090 BKN110
      TEMPO 0213/0215 VRB15G25KT 5SM TSRA BKN080CB OVC100
     FM021700 22010KT P6SM VCSH FEW100 BKN130
     FM022200 25010KT P6SM SCT130
     FM030400 VRB04KT P6SM FEW130
      AMD LTD TO CLD VIS AND WIND=



000
FTUS45 KSLC 021316 AAA
TAFSGU
TAF AMD
KSGU 021316Z 0213/0312 12007KT P6SM -SHRA BKN090 BKN110
      TEMPO 0213/0215 VRB15G25KT 5SM TSRA BKN080CB OVC100
     FM021700 22010KT P6SM VCSH FEW100 BKN130
     FM022200 25010KT P6SM SCT130
     FM030400 VRB04KT P6SM FEW130
      AMD LTD TO CLD VIS AND WIND=



000
FTUS45 KSLC 021120
TAFOGD
TAF
KOGD 021120Z 0212/0312 17007KT P6SM BKN200
     FM022000 28006KT P6SM BKN150 OVC200
     FM030100 16010G16KT P6SM FEW100 BKN150
     FM030800 17008KT P6SM SCT100 OVC150=



000
FTUS45 KSLC 021120
TAFPVU
TAF
KPVU 021120Z 0212/0312 15009KT P6SM BKN200
     FM022000 22010KT P6SM FEW100 BKN150
     FM030300 15010KT P6SM VCSH BKN100 BKN130
      AMD LTD TO CLD VIS AND WIND=



000
FTUS45 KSLC 021120
TAFENV
TAF
KENV 021120Z 0212/0312 VRB05KT P6SM BKN200
     FM021700 12007KT P6SM BKN150
     FM030200 25013G21KT P6SM BKN100 OVC150
     FM030900 30011G18KT P6SM FEW100 BKN150
      AMD LTD TO CLD VIS AND WIND=



000
FTUS45 KSLC 021120
TAFSGU
TAF
KSGU 021120Z 0212/0312 12007KT P6SM VCSH FEW100 BKN120
     FM021400 12007KT P6SM -SHRA BKN090 BKN110
      TEMPO 0214/0215 5SM TSRA BKN080CB OVC100
     FM021700 22010KT P6SM VCSH FEW100 BKN130
     FM022200 25010KT P6SM SCT130
     FM030400 VRB04KT P6SM FEW130
      AMD LTD TO CLD VIS AND WIND=



000
FTUS45 KSLC 021120
TAFBCE
TAF
KBCE 021120Z 0212/0312 27006KT P6SM BKN100 BKN120
     FM021500 14010KT P6SM VCSH BKN090 OVC120
     FM021900 21010G16KT P6SM -SHRA VCTS BKN090CB BKN120
     FM022300 26010KT P6SM VCSH BKN100 BKN120
     FM030300 30006KT P6SM SCT100 BKN150=



000
FTUS45 KSLC 021120
TAFPVU
TAF
KPVU 021120Z 0212/0312 15009KT P6SM BKN200
     FM022000 22010KT P6SM FEW100 BKN150
     FM030300 15010KT P6SM VCSH BKN100 BKN130
      AMD LTD TO CLD VIS AND WIND=



000
FTUS45 KSLC 021120
TAFCDC
TAF
KCDC 021120Z 0212/0312 15006KT P6SM BKN110
     FM021300 19008KT P6SM VCSH SCT080 BKN110
     FM021600 20008KT P6SM -SHRA BKN070 OVC100
     FM022200 22010G17KT P6SM VCSH SCT070 BKN100
     FM030200 21010KT P6SM FEW070 BKN100
     FM030900 18008KT P6SM SCT100=



000
FTUS45 KSLC 021120
TAFLGU
TAF
KLGU 021120Z 0212/0312 VRB04KT P6SM SCT200
     FM030300 18009KT P6SM FEW120 BKN200=



000
FTUS45 KSLC 021120
TAFOGD
TAF
KOGD 021120Z 0212/0312 17007KT P6SM BKN200
     FM022000 28006KT P6SM BKN150 OVC200
     FM030100 16010G16KT P6SM FEW100 BKN150
     FM030800 17008KT P6SM SCT100 OVC150=



000
FTUS45 KSLC 021120
TAFSLC
TAF
KSLC 021120Z 0212/0318 15005KT P6SM BKN200
     FM021800 33007KT P6SM SCT150 BKN200
     FM030000 16010G18KT P6SM FEW100 OVC150
     FM030600 17010G17KT P6SM SCT100 BKN130=



000
FTUS45 KSLC 021120
TAFOGD
TAF
KOGD 021120Z 0212/0312 17007KT P6SM BKN200
     FM022000 28006KT P6SM BKN150 OVC200
     FM030100 16010G16KT P6SM FEW100 BKN150
     FM030800 17008KT P6SM SCT100 OVC150=



000
FTUS45 KSLC 021120
TAFSLC
TAF
KSLC 021120Z 0212/0318 15005KT P6SM BKN200
     FM021800 33007KT P6SM SCT150 BKN200
     FM030000 16010G18KT P6SM FEW100 OVC150
     FM030600 17010G17KT P6SM SCT100 BKN130=



000
FTUS45 KSLC 021120
TAFSGU
TAF
KSGU 021120Z 0212/0312 12007KT P6SM VCSH FEW100 BKN120
     FM021400 12007KT P6SM -SHRA BKN090 BKN110
      TEMPO 0214/0215 5SM TSRA BKN080CB OVC100
     FM021700 22010KT P6SM VCSH FEW100 BKN130
     FM022200 25010KT P6SM SCT130
     FM030400 VRB04KT P6SM FEW130
      AMD LTD TO CLD VIS AND WIND=



000
FTUS45 KSLC 021120
TAFLGU
TAF
KLGU 021120Z 0212/0312 VRB04KT P6SM SCT200
     FM030300 18009KT P6SM FEW120 BKN200=



000
FTUS45 KSLC 021120
TAFPVU
TAF
KPVU 021120Z 0212/0312 15009KT P6SM BKN200
     FM022000 22010KT P6SM FEW100 BKN150
     FM030300 15010KT P6SM VCSH BKN100 BKN130
      AMD LTD TO CLD VIS AND WIND=



000
FTUS45 KSLC 021120
TAFLGU
TAF
KLGU 021120Z 0212/0312 VRB04KT P6SM SCT200
     FM030300 18009KT P6SM FEW120 BKN200=



000
FTUS45 KSLC 021120
TAFOGD
TAF
KOGD 021120Z 0212/0312 17007KT P6SM BKN200
     FM022000 28006KT P6SM BKN150 OVC200
     FM030100 16010G16KT P6SM FEW100 BKN150
     FM030800 17008KT P6SM SCT100 OVC150=



000
FTUS45 KSLC 021120
TAFBCE
TAF
KBCE 021120Z 0212/0312 27006KT P6SM BKN100 BKN120
     FM021500 14010KT P6SM VCSH BKN090 OVC120
     FM021900 21010G16KT P6SM -SHRA VCTS BKN090CB BKN120
     FM022300 26010KT P6SM VCSH BKN100 BKN120
     FM030300 30006KT P6SM SCT100 BKN150=



000
FTUS45 KSLC 021120
TAFLGU
TAF
KLGU 021120Z 0212/0312 VRB04KT P6SM SCT200
     FM030300 18009KT P6SM FEW120 BKN200=



000
FTUS45 KSLC 021120
TAFBCE
TAF
KBCE 021120Z 0212/0312 27006KT P6SM BKN100 BKN120
     FM021500 14010KT P6SM VCSH BKN090 OVC120
     FM021900 21010G16KT P6SM -SHRA VCTS BKN090CB BKN120
     FM022300 26010KT P6SM VCSH BKN100 BKN120
     FM030300 30006KT P6SM SCT100 BKN150=



000
FTUS45 KSLC 021120
TAFSLC
TAF
KSLC 021120Z 0212/0318 15005KT P6SM BKN200
     FM021800 33007KT P6SM SCT150 BKN200
     FM030000 16010G18KT P6SM FEW100 OVC150
     FM030600 17010G17KT P6SM SCT100 BKN130=



000
FTUS45 KSLC 021120
TAFENV
TAF
KENV 021120Z 0212/0312 VRB05KT P6SM BKN200
     FM021700 12007KT P6SM BKN150
     FM030200 25013G21KT P6SM BKN100 OVC150
     FM030900 30011G18KT P6SM FEW100 BKN150
      AMD LTD TO CLD VIS AND WIND=



000
FTUS45 KSLC 021120
TAFSLC
TAF
KSLC 021120Z 0212/0318 15005KT P6SM BKN200
     FM021800 33007KT P6SM SCT150 BKN200
     FM030000 16010G18KT P6SM FEW100 OVC150
     FM030600 17010G17KT P6SM SCT100 BKN130=



000
FTUS45 KSLC 021120
TAFPVU
TAF
KPVU 021120Z 0212/0312 15009KT P6SM BKN200
     FM022000 22010KT P6SM FEW100 BKN150
     FM030300 15010KT P6SM VCSH BKN100 BKN130
      AMD LTD TO CLD VIS AND WIND=



000
FTUS45 KSLC 021120
TAFBCE
TAF
KBCE 021120Z 0212/0312 27006KT P6SM BKN100 BKN120
     FM021500 14010KT P6SM VCSH BKN090 OVC120
     FM021900 21010G16KT P6SM -SHRA VCTS BKN090CB BKN120
     FM022300 26010KT P6SM VCSH BKN100 BKN120
     FM030300 30006KT P6SM SCT100 BKN150=



000
FTUS45 KSLC 021120
TAFSGU
TAF
KSGU 021120Z 0212/0312 12007KT P6SM VCSH FEW100 BKN120
     FM021400 12007KT P6SM -SHRA BKN090 BKN110
      TEMPO 0214/0215 5SM TSRA BKN080CB OVC100
     FM021700 22010KT P6SM VCSH FEW100 BKN130
     FM022200 25010KT P6SM SCT130
     FM030400 VRB04KT P6SM FEW130
      AMD LTD TO CLD VIS AND WIND=



000
FTUS45 KSLC 021120
TAFCDC
TAF
KCDC 021120Z 0212/0312 15006KT P6SM BKN110
     FM021300 19008KT P6SM VCSH SCT080 BKN110
     FM021600 20008KT P6SM -SHRA BKN070 OVC100
     FM022200 22010G17KT P6SM VCSH SCT070 BKN100
     FM030200 21010KT P6SM FEW070 BKN100
     FM030900 18008KT P6SM SCT100=



000
FTUS45 KSLC 021120
TAFCDC
TAF
KCDC 021120Z 0212/0312 15006KT P6SM BKN110
     FM021300 19008KT P6SM VCSH SCT080 BKN110
     FM021600 20008KT P6SM -SHRA BKN070 OVC100
     FM022200 22010G17KT P6SM VCSH SCT070 BKN100
     FM030200 21010KT P6SM FEW070 BKN100
     FM030900 18008KT P6SM SCT100=



000
FTUS45 KSLC 021120
TAFENV
TAF
KENV 021120Z 0212/0312 VRB05KT P6SM BKN200
     FM021700 12007KT P6SM BKN150
     FM030200 25013G21KT P6SM BKN100 OVC150
     FM030900 30011G18KT P6SM FEW100 BKN150
      AMD LTD TO CLD VIS AND WIND=



000
FTUS45 KSLC 021120
TAFENV
TAF
KENV 021120Z 0212/0312 VRB05KT P6SM BKN200
     FM021700 12007KT P6SM BKN150
     FM030200 25013G21KT P6SM BKN100 OVC150
     FM030900 30011G18KT P6SM FEW100 BKN150
      AMD LTD TO CLD VIS AND WIND=



000
FTUS45 KSLC 021120
TAFCDC
TAF
KCDC 021120Z 0212/0312 15006KT P6SM BKN110
     FM021300 19008KT P6SM VCSH SCT080 BKN110
     FM021600 20008KT P6SM -SHRA BKN070 OVC100
     FM022200 22010G17KT P6SM VCSH SCT070 BKN100
     FM030200 21010KT P6SM FEW070 BKN100
     FM030900 18008KT P6SM SCT100=



000
FTUS45 KSLC 021120
TAFSGU
TAF
KSGU 021120Z 0212/0312 12007KT P6SM VCSH FEW100 BKN120
     FM021400 12007KT P6SM -SHRA BKN090 BKN110
      TEMPO 0214/0215 5SM TSRA BKN080CB OVC100
     FM021700 22010KT P6SM VCSH FEW100 BKN130
     FM022200 25010KT P6SM SCT130
     FM030400 VRB04KT P6SM FEW130
      AMD LTD TO CLD VIS AND WIND=



000
FTUS45 KSLC 020856 AAA
TAFSLC
TAF AMD
KSLC 020856Z 0209/0312 16005KT P6SM SCT200
     FM022100 33007KT P6SM SCT150 BKN200
     FM030200 16008KT P6SM FEW100 BKN150
     FM030600 17010G17KT P6SM VCSH SCT100 BKN130=



000
FTUS45 KSLC 020856 AAA
TAFSLC
TAF AMD
KSLC 020856Z 0209/0312 16005KT P6SM SCT200
     FM022100 33007KT P6SM SCT150 BKN200
     FM030200 16008KT P6SM FEW100 BKN150
     FM030600 17010G17KT P6SM VCSH SCT100 BKN130=



000
FTUS45 KSLC 020538
TAFENV
TAF
KENV 020538Z 0206/0306 VRB05KT P6SM BKN200
     FM021700 12007KT P6SM BKN150
     FM030200 29010G16KT P6SM FEW100 BKN150
      AMD LTD TO CLD VIS AND WIND=



000
FTUS45 KSLC 020538
TAFLGU
TAF
KLGU 020538Z 0206/0306 VRB04KT P6SM SCT200=



000
FTUS45 KSLC 020538
TAFOGD
TAF
KOGD 020538Z 0206/0306 17007KT P6SM BKN200
     FM022000 28006KT P6SM BKN150
     FM030300 16009KT P6SM FEW100 BKN150=



000
FTUS45 KSLC 020538
TAFSLC
TAF
KSLC 020538Z 0206/0312 16007KT P6SM BKN200
     FM022100 33007KT P6SM BKN150
     FM030200 16008KT P6SM FEW100 BKN150
     FM030600 17010G17KT P6SM VCSH SCT100 BKN130=



000
FTUS45 KSLC 020538
TAFPVU
TAF
KPVU 020538Z 0206/0306 15005KT P6SM BKN200
     FM022000 22010KT P6SM FEW100 BKN150
     FM030300 15010KT P6SM VCSH BKN100 BKN130
      AMD LTD TO CLD VIS AND WIND=



000
FTUS45 KSLC 020538
TAFSGU
TAF
KSGU 020538Z 0206/0306 VRB05KT P6SM BKN140
     FM021400 12007KT P6SM VCSH SCT090 BKN120
     FM021900 22010KT P6SM VCSH FEW100 BKN130
     FM022200 25010KT P6SM SCT130
     FM030400 VRB04KT P6SM FEW130
      AMD LTD TO CLD VIS AND WIND=



000
FTUS45 KSLC 020538
TAFBCE
TAF
KBCE 020538Z 0206/0306 27006KT P6SM BKN130
     FM021400 14010KT P6SM VCSH BKN090 OVC120
     FM021900 21010G16KT P6SM VCTS BKN090CB BKN120
     FM022300 26010KT P6SM SCT100 BKN120=



000
FTUS45 KSLC 020538
TAFCDC
TAF
KCDC 020538Z 0206/0306 15006KT P6SM BKN110
     FM021300 19008KT P6SM VCSH SCT080 BKN110
     FM021600 20008KT P6SM -SHRA BKN070 OVC100
     FM022200 22010G17KT P6SM VCSH SCT070 BKN100
     FM030200 21010KT P6SM FEW070 BKN100=



000
FTUS45 KSLC 020538
TAFENV
TAF
KENV 020538Z 0206/0306 VRB05KT P6SM BKN200
     FM021700 12007KT P6SM BKN150
     FM030200 29010G16KT P6SM FEW100 BKN150
      AMD LTD TO CLD VIS AND WIND=



000
FTUS45 KSLC 020538
TAFPVU
TAF
KPVU 020538Z 0206/0306 15005KT P6SM BKN200
     FM022000 22010KT P6SM FEW100 BKN150
     FM030300 15010KT P6SM VCSH BKN100 BKN130
      AMD LTD TO CLD VIS AND WIND=



000
FTUS45 KSLC 020538
TAFLGU
TAF
KLGU 020538Z 0206/0306 VRB04KT P6SM SCT200=



000
FTUS45 KSLC 020538
TAFSGU
TAF
KSGU 020538Z 0206/0306 VRB05KT P6SM BKN140
     FM021400 12007KT P6SM VCSH SCT090 BKN120
     FM021900 22010KT P6SM VCSH FEW100 BKN130
     FM022200 25010KT P6SM SCT130
     FM030400 VRB04KT P6SM FEW130
      AMD LTD TO CLD VIS AND WIND=



000
FTUS45 KSLC 020538
TAFCDC
TAF
KCDC 020538Z 0206/0306 15006KT P6SM BKN110
     FM021300 19008KT P6SM VCSH SCT080 BKN110
     FM021600 20008KT P6SM -SHRA BKN070 OVC100
     FM022200 22010G17KT P6SM VCSH SCT070 BKN100
     FM030200 21010KT P6SM FEW070 BKN100=



000
FTUS45 KSLC 020538
TAFOGD
TAF
KOGD 020538Z 0206/0306 17007KT P6SM BKN200
     FM022000 28006KT P6SM BKN150
     FM030300 16009KT P6SM FEW100 BKN150=



000
FTUS45 KSLC 020538
TAFSLC
TAF
KSLC 020538Z 0206/0312 16007KT P6SM BKN200
     FM022100 33007KT P6SM BKN150
     FM030200 16008KT P6SM FEW100 BKN150
     FM030600 17010G17KT P6SM VCSH SCT100 BKN130=



000
FTUS45 KSLC 020538
TAFBCE
TAF
KBCE 020538Z 0206/0306 27006KT P6SM BKN130
     FM021400 14010KT P6SM VCSH BKN090 OVC120
     FM021900 21010G16KT P6SM VCTS BKN090CB BKN120
     FM022300 26010KT P6SM SCT100 BKN120=



000
FTUS45 KSLC 020322 AAA
TAFBCE
TAF AMD
KBCE 020322Z 0203/0224 27006KT P6SM BKN130
     FM021700 14010KT P6SM VCSH BKN090 OVC120=



000
FTUS45 KSLC 020322 AAA
TAFBCE
TAF AMD
KBCE 020322Z 0203/0224 27006KT P6SM BKN130
     FM021700 14010KT P6SM VCSH BKN090 OVC120=



000
FTUS45 KSLC 020320 AAA
TAFSGU
TAF AMD
KSGU 020320Z 0203/0224 25009KT P6SM BKN130
     FM020700 VRB06KT P6SM SCT100 BKN130
     FM021800 25007KT P6SM VCSH SCT090 BKN120
      AMD LTD TO CLD VIS AND WIND=



000
FTUS45 KSLC 020320 AAA
TAFSGU
TAF AMD
KSGU 020320Z 0203/0224 25009KT P6SM BKN130
     FM020700 VRB06KT P6SM SCT100 BKN130
     FM021800 25007KT P6SM VCSH SCT090 BKN120
      AMD LTD TO CLD VIS AND WIND=



000
FTUS45 KSLC 020303 AAB
TAFSLC
TAF AMD
KSLC 020303Z 0203/0306 30005KT P6SM BKN200
     FM020400 16007KT P6SM FEW150 BKN200
     FM022100 33007KT P6SM SCT100 BKN130
     FM030100 16008KT P6SM VCSH BKN100=



000
FTUS45 KSLC 020303 AAB
TAFSLC
TAF AMD
KSLC 020303Z 0203/0306 30005KT P6SM BKN200
     FM020400 16007KT P6SM FEW150 BKN200
     FM022100 33007KT P6SM SCT100 BKN130
     FM030100 16008KT P6SM VCSH BKN100=



000
FTUS45 KSLC 020303 AAB
TAFSLC
TAF AMD
KSLC 020303Z 0203/0306 30005KT P6SM BKN200
     FM020400 16007KT P6SM FEW150 BKN200
     FM022100 33007KT P6SM SCT100 BKN130
     FM030100 16008KT P6SM VCSH BKN100=



000
FTUS45 KSLC 020303 AAB
TAFSLC
TAF AMD
KSLC 020303Z 0203/0306 30005KT P6SM BKN200
     FM020400 16007KT P6SM FEW150 BKN200
     FM022100 33007KT P6SM SCT100 BKN130
     FM030100 16008KT P6SM VCSH BKN100=



000
FTUS45 KSLC 012336
TAFSLC
TAF
KSLC 012336Z 0200/0306 32009KT P6SM SCT200
     FM020400 16008KT P6SM FEW150 BKN200
     FM022100 33007KT P6SM SCT100 BKN130
     FM030100 16008KT P6SM VCSH BKN100=



000
FTUS45 KSLC 012336
TAFCDC
TAF
KCDC 012336Z 0200/0224 22012KT P6SM VCSH SCT080 BKN120
     FM020100 VRB06KT P6SM VCSH BKN070 OVC100
     FM020600 15006KT P6SM SCT070 BKN100
     FM021700 20008KT P6SM VCSH BKN070 BKN100=



000
FTUS45 KSLC 012336
TAFENV
TAF
KENV 012336Z 0200/0224 12007KT P6SM SCT200
     FM020300 VRB05KT P6SM BKN200
     FM021700 12007KT P6SM FEW100 BKN150
      AMD LTD TO CLD VIS AND WIND=



000
FTUS45 KSLC 012336
TAFSGU
TAF
KSGU 012336Z 0200/0224 25014KT P6SM VCSH SCT100 OVC130
     FM020300 VRB06KT P6SM VCSH BKN100 OVC130
     FM020700 VRB06KT P6SM SCT100 BKN130
     FM021800 25007KT P6SM VCSH SCT090 BKN120
      AMD LTD TO CLD VIS AND WIND=



000
FTUS45 KSLC 012336
TAFBCE
TAF
KBCE 012336Z 0200/0224 17010KT P6SM SCT080 BKN120
     FM020400 27006KT P6SM SCT070 BKN100
     FM021700 16012KT P6SM VCSH BKN070 OVC100=



000
FTUS45 KSLC 012336
TAFOGD
TAF
KOGD 012336Z 0200/0224 29007KT P6SM SCT200
     FM020300 17007KT P6SM BKN200
     FM022000 28006KT P6SM FEW100 BKN150=



000
FTUS45 KSLC 012336
TAFLGU
TAF
KLGU 012336Z 0200/0224 35007KT P6SM SCT200
     FM020300 VRB04KT P6SM BKN180=



000
FTUS45 KSLC 012336
TAFPVU
TAF
KPVU 012336Z 0200/0224 31007KT P6SM FEW150 SCT200
     FM020400 14005KT P6SM SCT140 BKN200
     FM022000 24006KT P6SM VCSH SCT090 BKN120
      AMD LTD TO CLD VIS AND WIND=



000
FTUS45 KSLC 012336
TAFPVU
TAF
KPVU 012336Z 0200/0224 31007KT P6SM FEW150 SCT200
     FM020400 14005KT P6SM SCT140 BKN200
     FM022000 24006KT P6SM VCSH SCT090 BKN120
      AMD LTD TO CLD VIS AND WIND=



000
FTUS45 KSLC 012336
TAFCDC
TAF
KCDC 012336Z 0200/0224 22012KT P6SM VCSH SCT080 BKN120
     FM020100 VRB06KT P6SM VCSH BKN070 OVC100
     FM020600 15006KT P6SM SCT070 BKN100
     FM021700 20008KT P6SM VCSH BKN070 BKN100=



000
FTUS45 KSLC 012336
TAFLGU
TAF
KLGU 012336Z 0200/0224 35007KT P6SM SCT200
     FM020300 VRB04KT P6SM BKN180=



000
FTUS45 KSLC 012336
TAFSLC
TAF
KSLC 012336Z 0200/0306 32009KT P6SM SCT200
     FM020400 16008KT P6SM FEW150 BKN200
     FM022100 33007KT P6SM SCT100 BKN130
     FM030100 16008KT P6SM VCSH BKN100=



000
FTUS45 KSLC 012336
TAFBCE
TAF
KBCE 012336Z 0200/0224 17010KT P6SM SCT080 BKN120
     FM020400 27006KT P6SM SCT070 BKN100
     FM021700 16012KT P6SM VCSH BKN070 OVC100=



000
FTUS45 KSLC 012336
TAFSGU
TAF
KSGU 012336Z 0200/0224 25014KT P6SM VCSH SCT100 OVC130
     FM020300 VRB06KT P6SM VCSH BKN100 OVC130
     FM020700 VRB06KT P6SM SCT100 BKN130
     FM021800 25007KT P6SM VCSH SCT090 BKN120
      AMD LTD TO CLD VIS AND WIND=



000
FTUS45 KSLC 012336
TAFENV
TAF
KENV 012336Z 0200/0224 12007KT P6SM SCT200
     FM020300 VRB05KT P6SM BKN200
     FM021700 12007KT P6SM FEW100 BKN150
      AMD LTD TO CLD VIS AND WIND=



000
FTUS45 KSLC 012336
TAFOGD
TAF
KOGD 012336Z 0200/0224 29007KT P6SM SCT200
     FM020300 17007KT P6SM BKN200
     FM022000 28006KT P6SM FEW100 BKN150=



000
FTUS45 KSLC 012336
TAFOGD
TAF
KOGD 012336Z 0200/0224 29007KT P6SM SCT200
     FM020300 17007KT P6SM BKN200
     FM022000 28006KT P6SM FEW100 BKN150=



000
FTUS45 KSLC 012336
TAFENV
TAF
KENV 012336Z 0200/0224 12007KT P6SM SCT200
     FM020300 VRB05KT P6SM BKN200
     FM021700 12007KT P6SM FEW100 BKN150
      AMD LTD TO CLD VIS AND WIND=



000
FTUS45 KSLC 012336
TAFLGU
TAF
KLGU 012336Z 0200/0224 35007KT P6SM SCT200
     FM020300 VRB04KT P6SM BKN180=



000
FTUS45 KSLC 012336
TAFSGU
TAF
KSGU 012336Z 0200/0224 25014KT P6SM VCSH SCT100 OVC130
     FM020300 VRB06KT P6SM VCSH BKN100 OVC130
     FM020700 VRB06KT P6SM SCT100 BKN130
     FM021800 25007KT P6SM VCSH SCT090 BKN120
      AMD LTD TO CLD VIS AND WIND=



000
FTUS45 KSLC 012336
TAFSLC
TAF
KSLC 012336Z 0200/0306 32009KT P6SM SCT200
     FM020400 16008KT P6SM FEW150 BKN200
     FM022100 33007KT P6SM SCT100 BKN130
     FM030100 16008KT P6SM VCSH BKN100=



000
FTUS45 KSLC 012336
TAFCDC
TAF
KCDC 012336Z 0200/0224 22012KT P6SM VCSH SCT080 BKN120
     FM020100 VRB06KT P6SM VCSH BKN070 OVC100
     FM020600 15006KT P6SM SCT070 BKN100
     FM021700 20008KT P6SM VCSH BKN070 BKN100=



000
FTUS45 KSLC 012336
TAFBCE
TAF
KBCE 012336Z 0200/0224 17010KT P6SM SCT080 BKN120
     FM020400 27006KT P6SM SCT070 BKN100
     FM021700 16012KT P6SM VCSH BKN070 OVC100=



000
FTUS45 KSLC 012336
TAFPVU
TAF
KPVU 012336Z 0200/0224 31007KT P6SM FEW150 SCT200
     FM020400 14005KT P6SM SCT140 BKN200
     FM022000 24006KT P6SM VCSH SCT090 BKN120
      AMD LTD TO CLD VIS AND WIND=



000
FTUS45 KSLC 012336
TAFPVU
TAF
KPVU 012336Z 0200/0224 31007KT P6SM FEW150 SCT200
     FM020400 14005KT P6SM SCT140 BKN200
     FM022000 24006KT P6SM VCSH SCT090 BKN120
      AMD LTD TO CLD VIS AND WIND=



000
FTUS45 KSLC 012336
TAFOGD
TAF
KOGD 012336Z 0200/0224 29007KT P6SM SCT200
     FM020300 17007KT P6SM BKN200
     FM022000 28006KT P6SM FEW100 BKN150=



000
FTUS45 KSLC 012336
TAFLGU
TAF
KLGU 012336Z 0200/0224 35007KT P6SM SCT200
     FM020300 VRB04KT P6SM BKN180=



000
FTUS45 KSLC 012336
TAFENV
TAF
KENV 012336Z 0200/0224 12007KT P6SM SCT200
     FM020300 VRB05KT P6SM BKN200
     FM021700 12007KT P6SM FEW100 BKN150
      AMD LTD TO CLD VIS AND WIND=



000
FTUS45 KSLC 012336
TAFSGU
TAF
KSGU 012336Z 0200/0224 25014KT P6SM VCSH SCT100 OVC130
     FM020300 VRB06KT P6SM VCSH BKN100 OVC130
     FM020700 VRB06KT P6SM SCT100 BKN130
     FM021800 25007KT P6SM VCSH SCT090 BKN120
      AMD LTD TO CLD VIS AND WIND=



000
FTUS45 KSLC 012336
TAFBCE
TAF
KBCE 012336Z 0200/0224 17010KT P6SM SCT080 BKN120
     FM020400 27006KT P6SM SCT070 BKN100
     FM021700 16012KT P6SM VCSH BKN070 OVC100=



000
FTUS45 KSLC 012336
TAFSLC
TAF
KSLC 012336Z 0200/0306 32009KT P6SM SCT200
     FM020400 16008KT P6SM FEW150 BKN200
     FM022100 33007KT P6SM SCT100 BKN130
     FM030100 16008KT P6SM VCSH BKN100=



000
FTUS45 KSLC 012336
TAFCDC
TAF
KCDC 012336Z 0200/0224 22012KT P6SM VCSH SCT080 BKN120
     FM020100 VRB06KT P6SM VCSH BKN070 OVC100
     FM020600 15006KT P6SM SCT070 BKN100
     FM021700 20008KT P6SM VCSH BKN070 BKN100=



000
FTUS45 KSLC 012109 AAA
TAFCDC
TAF AMD
KCDC 012109Z 0121/0218 22010KT P6SM VCSH SCT080 BKN120
     FM020100 VRB06KT P6SM VCSH BKN070 OVC100
     FM020600 15006KT P6SM SCT070 BKN100=



000
FTUS45 KSLC 012109 AAA
TAFCDC
TAF AMD
KCDC 012109Z 0121/0218 22010KT P6SM VCSH SCT080 BKN120
     FM020100 VRB06KT P6SM VCSH BKN070 OVC100
     FM020600 15006KT P6SM SCT070 BKN100=



000
FTUS45 KSLC 012108 AAB
TAFBCE
TAF AMD
KBCE 012108Z 0121/0218 17008KT P6SM SCT080 BKN120
     FM020000 26005KT P6SM VCSH BKN070 OVC100
     FM020400 27006KT P6SM SCT070 BKN100=



000
FTUS45 KSLC 012108 AAB
TAFBCE
TAF AMD
KBCE 012108Z 0121/0218 17008KT P6SM SCT080 BKN120
     FM020000 26005KT P6SM VCSH BKN070 OVC100
     FM020400 27006KT P6SM SCT070 BKN100=



000
FTUS45 KSLC 012106 AAB
TAFSLC
TAF AMD
KSLC 012106Z 0121/0224 33009KT P6SM SCT200
     FM020400 16008KT P6SM FEW150 BKN200
     FM022000 33007KT P6SM SCT100 BKN130=



000
FTUS45 KSLC 012106 AAB
TAFSLC
TAF AMD
KSLC 012106Z 0121/0224 33009KT P6SM SCT200
     FM020400 16008KT P6SM FEW150 BKN200
     FM022000 33007KT P6SM SCT100 BKN130=



000
FTUS45 KSLC 011900 AAA
TAFBCE
TAF AMD
KBCE 011900Z 0119/0218 23008KT P6SM VCSH SCT080 BKN120
     FM012000 34007KT P6SM -TSRA SCT070CB BKN100
     FM020000 26005KT P6SM VCSH BKN070 OVC100
     FM020400 27006KT P6SM SCT070 BKN100=



000
FTUS45 KSLC 011900 AAA
TAFBCE
TAF AMD
KBCE 011900Z 0119/0218 23008KT P6SM VCSH SCT080 BKN120
     FM012000 34007KT P6SM -TSRA SCT070CB BKN100
     FM020000 26005KT P6SM VCSH BKN070 OVC100
     FM020400 27006KT P6SM SCT070 BKN100=



    US Dept of Commerce
    National Oceanic and Atmospheric Administration
    National Weather Service
    1325 East West Highway
    Silver Spring, MD 20910
    Page Author: NWS Internet Services Team
Disclaimer
Information Quality
Credits
Glossary
Privacy Policy
Freedom of Information Act (FOIA)
About Us
Career Opportunities